Time,TemperatureF,DewpointF,PressureIn,WindDirection,WindDirectionDegrees,WindSpeedMPH,WindSpeedGustMPH,Humidity,HourlyPrecipIn,Conditions,Clouds,dailyrainin,SoftwareType,DateUTC
2013-03-04 00:02:00,12.9,3.7,30.08,NNE,17,2.0,3.0,66,0.00,,CLR,0.00,VWS V12.07,2013-03-04 06:02:00,
2013-03-04 00:03:00,13.1,3.9,30.08,NNE,17,0.0,3.0,66,0.00,,CLR,0.00,VWS V12.07,2013-03-04 06:03:00,
2013-03-04 00:04:00,13.1,3.6,30.08,NNE,17,1.0,3.0,65,0.00,,CLR,0.00,VWS V12.07,2013-03-04 06:04:00,
2013-03-04 00:07:00,13.1,3.6,30.08,NNE,18,0.0,3.0,65,0.00,,CLR,0.00,VWS V12.07,2013-03-04 06:07:00,
2013-03-04 00:08:00,13.1,3.6,30.08,NNE,18,1.0,3.0,65,0.00,,CLR,0.00,VWS V12.07,2013-03-04 06:08:00,
2013-03-04 00:09:00,13.1,3.6,30.08,NNE,18,0.0,1.0,65,0.00,,CLR,0.00,VWS V12.07,2013-03-04 06:09:00,
2013-03-04 00:12:00,12.9,3.4,30.08,North,0,2.0,2.0,65,0.00,,CLR,0.00,VWS V12.07,2013-03-04 06:12:00,
2013-03-04 00:13:00,13.1,3.2,30.08,NNE,31,2.0,3.0,64,0.00,,CLR,0.00,VWS V12.07,2013-03-04 06:13:00,
2013-03-04 00:15:00,13.1,3.2,30.09,NE,39,0.0,3.0,64,0.00,,CLR,0.00,VWS V12.07,2013-03-04 06:15:00,
2013-03-04 00:17:00,12.9,3.0,30.09,NE,36,0.0,2.0,64,0.00,,CLR,0.00,VWS V12.07,2013-03-04 06:17:00,
2013-03-04 00:18:00,12.9,3.0,30.09,NE,36,0.0,2.0,64,0.00,,CLR,0.00,VWS V12.07,2013-03-04 06:18:00,
2013-03-04 00:20:00,12.9,3.0,30.09,NE,36,0.0,2.0,64,0.00,,CLR,0.00,VWS V12.07,2013-03-04 06:20:00,
2013-03-04 00:22:00,12.9,2.7,30.09,NE,36,0.0,2.0,63,0.00,,CLR,0.00,VWS V12.07,2013-03-04 06:22:00,
2013-03-04 00:23:00,12.9,2.7,30.09,NE,36,0.0,2.0,63,0.00,,CLR,0.00,VWS V12.07,2013-03-04 06:23:00,
2013-03-04 00:25:00,12.9,2.7,30.09,NE,36,0.0,2.0,63,0.00,,CLR,0.00,VWS V12.07,2013-03-04 06:25:00,
2013-03-04 00:27:00,12.9,2.7,30.09,NE,36,0.0,2.0,63,0.00,,CLR,0.00,VWS V12.07,2013-03-04 06:27:00,
2013-03-04 00:28:00,12.9,2.7,30.09,NE,36,0.0,2.0,63,0.00,,CLR,0.00,VWS V12.07,2013-03-04 06:28:00,
2013-03-04 00:29:00,12.8,2.6,30.09,NE,36,0.0,0.0,63,0.00,,CLR,0.00,VWS V12.07,2013-03-04 06:29:00,
2013-03-04 00:30:00,12.6,2.8,30.09,NE,36,0.0,0.0,64,0.00,,CLR,0.00,VWS V12.07,2013-03-04 06:30:00,
2013-03-04 00:32:00,12.6,2.8,30.09,NE,36,0.0,1.0,64,0.00,,CLR,0.00,VWS V12.07,2013-03-04 06:32:00,
2013-03-04 00:33:00,12.6,2.8,30.09,NE,36,1.0,2.0,64,0.00,,CLR,0.00,VWS V12.07,2013-03-04 06:33:00,
2013-03-04 00:34:00,12.4,2.6,30.09,NE,36,0.0,2.0,64,0.00,,CLR,0.00,VWS V12.07,2013-03-04 06:34:00,
2013-03-04 00:35:00,12.4,2.6,30.09,NE,36,0.0,2.0,64,0.00,,CLR,0.00,VWS V12.07,2013-03-04 06:35:00,
2013-03-04 00:37:00,12.4,2.6,30.09,NE,36,0.0,0.0,64,0.00,,CLR,0.00,VWS V12.07,2013-03-04 06:37:00,
2013-03-04 00:39:00,12.4,2.6,30.09,NE,36,0.0,0.0,64,0.00,,CLR,0.00,VWS V12.07,2013-03-04 06:39:00,
2013-03-04 00:40:00,12.4,2.6,30.09,NE,36,0.0,0.0,64,0.00,,CLR,0.00,VWS V12.07,2013-03-04 06:40:00,
2013-03-04 00:42:00,12.4,2.6,30.09,NE,36,1.0,1.0,64,0.00,,CLR,0.00,VWS V12.07,2013-03-04 06:42:00,
2013-03-04 00:44:00,12.4,2.6,30.09,NE,36,1.0,2.0,64,0.00,,CLR,0.00,VWS V12.07,2013-03-04 06:44:00,
2013-03-04 00:45:00,12.4,2.6,30.09,NE,37,1.0,2.0,64,0.00,,CLR,0.00,VWS V12.07,2013-03-04 06:45:00,
2013-03-04 00:48:00,12.4,2.2,30.09,NE,37,0.0,1.0,63,0.00,,CLR,0.00,VWS V12.07,2013-03-04 06:48:00,
2013-03-04 00:49:00,12.3,2.1,30.09,NE,37,0.0,1.0,63,0.00,,CLR,0.00,VWS V12.07,2013-03-04 06:49:00,
2013-03-04 00:50:00,12.3,2.5,30.09,NE,37,0.0,1.0,64,0.00,,CLR,0.00,VWS V12.07,2013-03-04 06:50:00,
2013-03-04 00:51:00,12.3,2.5,30.09,NE,37,0.0,1.0,64,0.00,,SCT110,0.00,VWS V12.07,2013-03-04 06:51:00,
2013-03-04 00:53:00,12.3,2.5,30.09,NE,37,0.0,1.0,64,0.00,,SCT110,0.00,VWS V12.07,2013-03-04 06:53:00,
2013-03-04 00:54:00,12.1,2.3,30.09,NE,37,0.0,1.0,64,0.00,,SCT110,0.00,VWS V12.07,2013-03-04 06:54:00,
2013-03-04 00:55:00,12.1,2.3,30.09,NE,37,0.0,1.0,64,0.00,,SCT110,0.00,VWS V12.07,2013-03-04 06:55:00,
2013-03-04 00:56:00,12.1,2.3,30.09,NE,37,0.0,1.0,64,0.00,,SCT110,0.00,VWS V12.07,2013-03-04 06:56:00,
2013-03-04 00:58:00,11.9,2.1,30.09,NE,37,0.0,1.0,64,0.00,,SCT110,0.00,VWS V12.07,2013-03-04 06:58:00,
2013-03-04 00:59:00,11.9,2.1,30.09,NE,37,0.0,1.0,64,0.00,,SCT110,0.00,VWS V12.07,2013-03-04 06:59:00,
2013-03-04 01:00:00,11.9,2.1,30.09,NE,37,0.0,1.0,64,0.00,,SCT110,0.00,VWS V12.07,2013-03-04 07:00:00,
2013-03-04 01:01:00,11.9,2.1,30.09,NE,37,0.0,1.0,64,0.00,,SCT110,0.00,VWS V12.07,2013-03-04 07:01:00,
2013-03-04 01:03:00,11.7,1.9,30.09,NE,37,0.0,1.0,64,0.00,,SCT110,0.00,VWS V12.07,2013-03-04 07:03:00,
2013-03-04 01:04:00,11.7,1.9,30.09,NE,37,0.0,1.0,64,0.00,,SCT110,0.00,VWS V12.07,2013-03-04 07:04:00,
2013-03-04 01:05:00,11.7,1.9,30.09,NE,37,0.0,1.0,64,0.00,,SCT110,0.00,VWS V12.07,2013-03-04 07:05:00,
2013-03-04 01:06:00,11.6,2.1,30.09,NE,37,0.0,1.0,65,0.00,,SCT110,0.00,VWS V12.07,2013-03-04 07:06:00,
2013-03-04 01:08:00,11.6,2.1,30.09,NE,37,1.0,1.0,65,0.00,,SCT110,0.00,VWS V12.07,2013-03-04 07:08:00,
2013-03-04 01:09:00,11.6,2.1,30.09,NE,37,1.0,1.0,65,0.00,,SCT110,0.00,VWS V12.07,2013-03-04 07:09:00,
2013-03-04 01:10:00,11.6,2.1,30.09,NE,37,0.0,1.0,65,0.00,,SCT110,0.00,VWS V12.07,2013-03-04 07:10:00,
2013-03-04 01:11:00,11.4,1.9,30.09,NE,37,0.0,1.0,65,0.00,,SCT110,0.00,VWS V12.07,2013-03-04 07:11:00,
2013-03-04 01:14:00,11.2,1.7,30.09,NE,37,1.0,1.0,65,0.00,,SCT110,0.00,VWS V12.07,2013-03-04 07:14:00,
2013-03-04 01:15:00,11.2,1.7,30.09,NE,37,0.0,1.0,65,0.00,,SCT110,0.00,VWS V12.07,2013-03-04 07:15:00,
2013-03-04 01:16:00,11.1,1.6,30.09,NE,37,0.0,1.0,65,0.00,,SCT110,0.00,VWS V12.07,2013-03-04 07:16:00,
2013-03-04 01:19:00,10.9,1.8,30.09,NE,37,1.0,1.0,66,0.00,,SCT110,0.00,VWS V12.07,2013-03-04 07:19:00,
2013-03-04 01:20:00,10.9,1.5,30.09,NE,37,0.0,1.0,65,0.00,,SCT110,0.00,VWS V12.07,2013-03-04 07:20:00,
2013-03-04 01:22:00,10.9,1.8,30.09,NE,37,0.0,1.0,66,0.00,,SCT110,0.00,VWS V12.07,2013-03-04 07:22:00,
2013-03-04 01:24:00,10.7,1.3,30.09,NE,37,1.0,1.0,65,0.00,,SCT110,0.00,VWS V12.07,2013-03-04 07:24:00,
2013-03-04 01:25:00,10.5,1.1,30.09,NE,37,1.0,2.0,65,0.00,,SCT110,0.00,VWS V12.07,2013-03-04 07:25:00,
2013-03-04 01:27:00,10.4,1.3,30.09,NE,37,0.0,2.0,66,0.00,,SCT110,0.00,VWS V12.07,2013-03-04 07:27:00,
2013-03-04 01:29:00,10.0,1.2,30.10,NE,37,1.0,2.0,67,0.00,,SCT110,0.00,VWS V12.07,2013-03-04 07:29:00,
2013-03-04 01:30:00,10.0,1.2,30.10,NE,37,1.0,2.0,67,0.00,,SCT110,0.00,VWS V12.07,2013-03-04 07:30:00,
2013-03-04 01:32:00,9.9,1.1,30.10,NE,37,0.0,2.0,67,0.00,,SCT110,0.00,VWS V12.07,2013-03-04 07:32:00,
2013-03-04 01:35:00,9.5,1.1,30.10,NE,37,1.0,2.0,68,0.00,,CLR,0.00,VWS V12.07,2013-03-04 07:35:00,
2013-03-04 01:37:00,9.5,1.1,30.10,NE,37,0.0,2.0,68,0.00,,CLR,0.00,VWS V12.07,2013-03-04 07:37:00,
2013-03-04 01:40:00,9.5,1.1,30.10,NE,37,0.0,1.0,68,0.00,,CLR,0.00,VWS V12.07,2013-03-04 07:40:00,
2013-03-04 01:41:00,9.5,1.1,30.10,NE,37,1.0,1.0,68,0.00,,CLR,0.00,VWS V12.07,2013-03-04 07:41:00,
2013-03-04 01:42:00,9.5,1.1,30.10,NE,37,0.0,1.0,68,0.00,,CLR,0.00,VWS V12.07,2013-03-04 07:42:00,
2013-03-04 01:45:00,9.3,0.9,30.11,NE,37,0.0,1.0,68,0.00,,CLR,0.00,VWS V12.07,2013-03-04 07:45:00,
2013-03-04 01:46:00,9.3,0.9,30.11,NE,37,0.0,1.0,68,0.00,,CLR,0.00,VWS V12.07,2013-03-04 07:46:00,
2013-03-04 01:47:00,9.2,1.1,30.11,NE,37,0.0,1.0,69,0.00,,CLR,0.00,VWS V12.07,2013-03-04 07:47:00,
2013-03-04 01:51:00,9.2,1.1,30.11,NE,37,0.0,0.0,69,0.00,,CLR,0.00,VWS V12.07,2013-03-04 07:51:00,
2013-03-04 01:52:00,9.2,1.1,30.11,NE,37,0.0,0.0,69,0.00,,CLR,0.00,VWS V12.07,2013-03-04 07:52:00,
2013-03-04 01:56:00,9.2,1.1,30.11,NE,37,1.0,1.0,69,0.00,,CLR,0.00,VWS V12.07,2013-03-04 07:56:00,
2013-03-04 01:57:00,9.0,0.9,30.11,NE,37,1.0,1.0,69,0.00,,CLR,0.00,VWS V12.07,2013-03-04 07:57:00,
2013-03-04 01:58:00,9.0,0.9,30.11,NE,37,0.0,1.0,69,0.00,,CLR,0.00,VWS V12.07,2013-03-04 07:58:00,
2013-03-04 02:01:00,8.8,0.7,30.10,NE,37,0.0,1.0,69,0.00,,CLR,0.00,VWS V12.07,2013-03-04 08:01:00,
2013-03-04 02:02:00,8.8,0.7,30.10,NE,37,0.0,1.0,69,0.00,,CLR,0.00,VWS V12.07,2013-03-04 08:02:00,
2013-03-04 02:03:00,8.6,0.5,30.10,NE,37,1.0,1.0,69,0.00,,CLR,0.00,VWS V12.07,2013-03-04 08:03:00,
2013-03-04 02:06:00,8.6,0.8,30.10,NE,37,0.0,1.0,70,0.00,,CLR,0.00,VWS V12.07,2013-03-04 08:06:00,
2013-03-04 02:07:00,8.6,0.8,30.10,NE,37,0.0,1.0,70,0.00,,CLR,0.00,VWS V12.07,2013-03-04 08:07:00,
2013-03-04 02:08:00,8.4,0.6,30.10,NE,37,0.0,1.0,70,0.00,,CLR,0.00,VWS V12.07,2013-03-04 08:08:00,
2013-03-04 02:11:00,8.4,0.6,30.10,NE,37,0.0,1.0,70,0.00,,CLR,0.00,VWS V12.07,2013-03-04 08:11:00,
2013-03-04 02:12:00,8.4,0.6,30.10,NE,37,0.0,1.0,70,0.00,,CLR,0.00,VWS V12.07,2013-03-04 08:12:00,
2013-03-04 02:14:00,8.6,0.8,30.10,NE,37,1.0,1.0,70,0.00,,CLR,0.00,VWS V12.07,2013-03-04 08:14:00,
2013-03-04 02:17:00,8.6,0.8,30.10,NE,37,1.0,1.0,70,0.00,,CLR,0.00,VWS V12.07,2013-03-04 08:17:00,
2013-03-04 02:18:00,8.6,0.8,30.10,NE,37,1.0,1.0,70,0.00,,CLR,0.00,VWS V12.07,2013-03-04 08:18:00,
2013-03-04 02:19:00,8.8,1.0,30.10,NE,37,0.0,1.0,70,0.00,,CLR,0.00,VWS V12.07,2013-03-04 08:19:00,
2013-03-04 02:22:00,8.6,0.5,30.10,NE,37,0.0,1.0,69,0.00,,CLR,0.00,VWS V12.07,2013-03-04 08:22:00,
2013-03-04 02:23:00,8.6,0.8,30.10,NE,37,2.0,2.0,70,0.00,,CLR,0.00,VWS V12.07,2013-03-04 08:23:00,
2013-03-04 02:24:00,8.4,0.6,30.10,NE,37,0.0,2.0,70,0.00,,CLR,0.00,VWS V12.07,2013-03-04 08:24:00,
2013-03-04 02:27:00,8.4,0.6,30.10,NE,37,0.0,2.0,70,0.00,,CLR,0.00,VWS V12.07,2013-03-04 08:27:00,
2013-03-04 02:28:00,8.4,0.6,30.10,NE,37,0.0,2.0,70,0.00,,CLR,0.00,VWS V12.07,2013-03-04 08:28:00,
2013-03-04 02:29:00,8.4,0.6,30.11,NE,37,0.0,1.0,70,0.00,,CLR,0.00,VWS V12.07,2013-03-04 08:29:00,
2013-03-04 02:32:00,8.4,0.6,30.11,NE,37,0.0,2.0,70,0.00,,CLR,0.00,VWS V12.07,2013-03-04 08:32:00,
2013-03-04 02:33:00,8.4,0.6,30.11,NE,37,1.0,2.0,70,0.00,,CLR,0.00,VWS V12.07,2013-03-04 08:33:00,
2013-03-04 02:34:00,8.4,0.6,30.11,NE,37,1.0,2.0,70,0.00,,CLR,0.00,VWS V12.07,2013-03-04 08:34:00,
2013-03-04 02:37:00,8.4,0.9,30.11,NE,37,0.0,2.0,71,0.00,,CLR,0.00,VWS V12.07,2013-03-04 08:37:00,
2013-03-04 02:38:00,8.4,0.9,30.11,NE,37,0.0,2.0,71,0.00,,CLR,0.00,VWS V12.07,2013-03-04 08:38:00,
2013-03-04 02:39:00,8.4,0.9,30.11,NE,37,0.0,1.0,71,0.00,,CLR,0.00,VWS V12.07,2013-03-04 08:39:00,
2013-03-04 02:40:00,8.4,0.9,30.11,NE,37,0.0,1.0,71,0.00,,CLR,0.00,VWS V12.07,2013-03-04 08:40:00,
2013-03-04 02:42:00,8.4,0.9,30.11,NE,37,0.0,1.0,71,0.00,,CLR,0.00,VWS V12.07,2013-03-04 08:42:00,
2013-03-04 02:43:00,8.4,0.9,30.11,NE,37,0.0,1.0,71,0.00,,CLR,0.00,VWS V12.07,2013-03-04 08:43:00,
2013-03-04 02:44:00,8.4,0.9,30.11,NE,37,0.0,1.0,71,0.00,,CLR,0.00,VWS V12.07,2013-03-04 08:44:00,
2013-03-04 02:45:00,8.4,0.9,30.11,NE,37,0.0,1.0,71,0.00,,CLR,0.00,VWS V12.07,2013-03-04 08:45:00,
2013-03-04 02:48:00,8.4,0.9,30.11,NE,37,0.0,0.0,71,0.00,,CLR,0.00,VWS V12.07,2013-03-04 08:48:00,
2013-03-04 02:49:00,8.4,0.9,30.11,NE,37,0.0,0.0,71,0.00,,CLR,0.00,VWS V12.07,2013-03-04 08:49:00,
2013-03-04 02:50:00,8.4,0.9,30.11,NE,37,0.0,0.0,71,0.00,,CLR,0.00,VWS V12.07,2013-03-04 08:50:00,
2013-03-04 02:53:00,8.4,0.9,30.11,NE,37,0.0,0.0,71,0.00,,CLR,0.00,VWS V12.07,2013-03-04 08:53:00,
2013-03-04 02:54:00,8.4,0.9,30.11,NE,37,0.0,0.0,71,0.00,,CLR,0.00,VWS V12.07,2013-03-04 08:54:00,
2013-03-04 02:55:00,8.4,0.9,30.11,NE,37,0.0,0.0,71,0.00,,CLR,0.00,VWS V12.07,2013-03-04 08:55:00,
2013-03-04 02:58:00,8.4,0.9,30.11,NE,37,0.0,0.0,71,0.00,,CLR,0.00,VWS V12.07,2013-03-04 08:58:00,
2013-03-04 02:59:00,8.4,0.9,30.11,NE,37,0.0,0.0,71,0.00,,CLR,0.00,VWS V12.07,2013-03-04 08:59:00,
2013-03-04 03:00:00,8.4,0.9,30.06,NE,37,0.0,0.0,71,0.00,,CLR,0.00,VWS V12.07,2013-03-04 09:00:00,
2013-03-04 03:03:00,8.4,0.9,30.06,NE,37,0.0,0.0,71,0.00,,CLR,0.00,VWS V12.07,2013-03-04 09:03:00,
2013-03-04 03:04:00,8.4,0.9,30.06,NE,37,0.0,0.0,71,0.00,,CLR,0.00,VWS V12.07,2013-03-04 09:04:00,
2013-03-04 03:05:00,8.4,0.9,30.06,NE,37,0.0,0.0,71,0.00,,CLR,0.00,VWS V12.07,2013-03-04 09:05:00,
2013-03-04 03:08:00,8.4,0.9,30.06,NE,37,0.0,0.0,71,0.00,,CLR,0.00,VWS V12.07,2013-03-04 09:08:00,
2013-03-04 03:09:00,8.4,0.9,30.06,NE,37,0.0,0.0,71,0.00,,CLR,0.00,VWS V12.07,2013-03-04 09:09:00,
2013-03-04 03:10:00,8.4,0.9,30.06,NE,37,0.0,0.0,71,0.00,,CLR,0.00,VWS V12.07,2013-03-04 09:10:00,
2013-03-04 03:11:00,8.4,0.9,30.06,NE,37,0.0,0.0,71,0.00,,CLR,0.00,VWS V12.07,2013-03-04 09:11:00,
2013-03-04 03:13:00,8.4,0.9,30.06,NE,37,0.0,0.0,71,0.00,,CLR,0.00,VWS V12.07,2013-03-04 09:13:00,
2013-03-04 03:15:00,8.4,0.9,30.06,NE,37,0.0,0.0,71,0.00,,CLR,0.00,VWS V12.07,2013-03-04 09:15:00,
2013-03-04 03:16:00,8.4,0.9,30.06,NE,37,0.0,0.0,71,0.00,,CLR,0.00,VWS V12.07,2013-03-04 09:16:00,
2013-03-04 03:18:00,8.4,0.9,30.06,NE,37,0.0,0.0,71,0.00,,CLR,0.00,VWS V12.07,2013-03-04 09:18:00,
2013-03-04 03:20:00,8.4,0.9,30.06,NE,37,0.0,0.0,71,0.00,,CLR,0.00,VWS V12.07,2013-03-04 09:20:00,
2013-03-04 03:21:00,8.4,0.9,30.06,NE,37,0.0,0.0,71,0.00,,CLR,0.00,VWS V12.07,2013-03-04 09:21:00,
2013-03-04 03:23:00,8.4,0.9,30.06,NE,37,0.0,0.0,71,0.00,,CLR,0.00,VWS V12.07,2013-03-04 09:23:00,
2013-03-04 03:25:00,8.4,0.9,30.06,NE,37,0.0,0.0,71,0.00,,CLR,0.00,VWS V12.07,2013-03-04 09:25:00,
2013-03-04 03:26:00,8.4,0.9,30.06,NE,37,0.0,0.0,71,0.00,,CLR,0.00,VWS V12.07,2013-03-04 09:26:00,
2013-03-04 03:28:00,8.4,0.9,30.06,NE,37,0.0,0.0,71,0.00,,CLR,0.00,VWS V12.07,2013-03-04 09:28:00,
2013-03-04 03:30:00,8.4,0.9,30.05,NE,37,0.0,0.0,71,0.00,,CLR,0.00,VWS V12.07,2013-03-04 09:30:00,
2013-03-04 03:31:00,8.4,0.9,30.05,NE,37,0.0,0.0,71,0.00,,CLR,0.00,VWS V12.07,2013-03-04 09:31:00,
2013-03-04 03:33:00,8.4,0.9,30.05,NE,37,0.0,0.0,71,0.00,,CLR,0.00,VWS V12.07,2013-03-04 09:33:00,
2013-03-04 03:35:00,8.4,0.9,30.05,NE,37,0.0,0.0,71,0.00,,CLR,0.00,VWS V12.07,2013-03-04 09:35:00,
2013-03-04 03:36:00,8.4,0.9,30.05,NE,37,0.0,0.0,71,0.00,,CLR,0.00,VWS V12.07,2013-03-04 09:36:00,
2013-03-04 03:39:00,8.4,0.9,30.05,NE,37,0.0,0.0,71,0.00,,CLR,0.00,VWS V12.07,2013-03-04 09:39:00,
2013-03-04 03:40:00,8.4,0.9,30.05,NE,37,0.0,0.0,71,0.00,,CLR,0.00,VWS V12.07,2013-03-04 09:40:00,
2013-03-04 03:41:00,8.4,0.9,30.05,NE,37,0.0,0.0,71,0.00,,CLR,0.00,VWS V12.07,2013-03-04 09:41:00,
2013-03-04 03:44:00,8.4,0.9,30.05,NE,37,0.0,0.0,71,0.00,,CLR,0.00,VWS V12.07,2013-03-04 09:44:00,
2013-03-04 03:46:00,8.4,0.9,30.06,NE,37,0.0,0.0,71,0.00,,CLR,0.00,VWS V12.07,2013-03-04 09:46:00,
2013-03-04 03:47:00,8.4,0.9,30.06,NE,37,0.0,0.0,71,0.00,,CLR,0.00,VWS V12.07,2013-03-04 09:47:00,
2013-03-04 03:49:00,8.4,0.9,30.06,NE,37,0.0,0.0,71,0.00,,CLR,0.00,VWS V12.07,2013-03-04 09:49:00,
2013-03-04 03:50:00,8.4,0.9,30.05,NE,37,0.0,0.0,71,0.00,,BKN080,0.00,VWS V12.07,2013-03-04 09:50:00,
2013-03-04 03:51:00,8.4,0.9,30.06,NE,37,0.0,0.0,71,0.00,,CLR,0.00,VWS V12.07,2013-03-04 09:51:00,
2013-03-04 03:52:00,8.4,0.9,30.06,NE,37,0.0,0.0,71,0.00,,CLR,0.00,VWS V12.07,2013-03-04 09:52:00,
2013-03-04 03:54:00,8.4,0.9,30.06,NE,37,0.0,0.0,71,0.00,,CLR,0.00,VWS V12.07,2013-03-04 09:54:00,
2013-03-04 03:56:00,8.4,0.9,30.06,NE,37,0.0,0.0,71,0.00,,CLR,0.00,VWS V12.07,2013-03-04 09:56:00,
2013-03-04 03:57:00,8.4,0.9,30.06,NE,37,0.0,0.0,71,0.00,,CLR,0.00,VWS V12.07,2013-03-04 09:57:00,
2013-03-04 04:00:00,8.4,0.9,30.06,NE,37,0.0,0.0,71,0.00,,CLR,0.00,VWS V12.07,2013-03-04 10:00:00,
2013-03-04 04:01:00,8.4,0.9,30.06,NE,37,0.0,0.0,71,0.00,,CLR,0.00,VWS V12.07,2013-03-04 10:01:00,
2013-03-04 04:02:00,8.4,0.9,30.06,NE,37,0.0,0.0,71,0.00,,CLR,0.00,VWS V12.07,2013-03-04 10:02:00,
2013-03-04 04:05:00,8.4,0.9,30.06,NE,37,0.0,0.0,71,0.00,,CLR,0.00,VWS V12.07,2013-03-04 10:05:00,
2013-03-04 04:06:00,8.4,0.9,30.06,NE,37,0.0,0.0,71,0.00,,CLR,0.00,VWS V12.07,2013-03-04 10:06:00,
2013-03-04 04:07:00,8.4,0.9,30.06,NE,37,0.0,0.0,71,0.00,,CLR,0.00,VWS V12.07,2013-03-04 10:07:00,
2013-03-04 04:10:00,8.4,0.9,30.06,NE,37,0.0,0.0,71,0.00,,BKN080,0.00,VWS V12.07,2013-03-04 10:10:00,
2013-03-04 04:11:00,8.4,0.9,30.06,NE,37,0.0,0.0,71,0.00,,CLR,0.00,VWS V12.07,2013-03-04 10:11:00,
2013-03-04 04:12:00,8.4,0.9,30.06,NE,37,0.0,0.0,71,0.00,,CLR,0.00,VWS V12.07,2013-03-04 10:12:00,
2013-03-04 04:16:00,8.4,0.9,30.06,NE,37,0.0,0.0,71,0.00,,CLR,0.00,VWS V12.07,2013-03-04 10:16:00,
2013-03-04 04:17:00,8.4,0.9,30.06,NE,37,0.0,0.0,71,0.00,,CLR,0.00,VWS V12.07,2013-03-04 10:17:00,
2013-03-04 04:20:00,8.4,0.9,30.06,NE,37,0.0,0.0,71,0.00,,BKN080,0.00,VWS V12.07,2013-03-04 10:20:00,
2013-03-04 04:21:00,8.4,0.9,30.06,NE,37,0.0,0.0,71,0.00,,CLR,0.00,VWS V12.07,2013-03-04 10:21:00,
2013-03-04 04:22:00,8.4,0.9,30.06,NE,37,0.0,0.0,71,0.00,,CLR,0.00,VWS V12.07,2013-03-04 10:22:00,
2013-03-04 04:23:00,8.4,0.9,30.06,NE,37,0.0,0.0,71,0.00,,CLR,0.00,VWS V12.07,2013-03-04 10:23:00,
2013-03-04 04:26:00,8.4,0.9,30.06,NE,37,0.0,0.0,71,0.00,,CLR,0.00,VWS V12.07,2013-03-04 10:26:00,
2013-03-04 04:27:00,8.4,0.9,30.06,NE,37,0.0,0.0,71,0.00,,CLR,0.00,VWS V12.07,2013-03-04 10:27:00,
2013-03-04 04:28:00,8.4,0.9,30.06,NE,37,0.0,0.0,71,0.00,,CLR,0.00,VWS V12.07,2013-03-04 10:28:00,
2013-03-04 04:30:00,8.4,0.9,30.06,NE,37,0.0,0.0,71,0.00,,BKN080,0.00,VWS V12.07,2013-03-04 10:30:00,
2013-03-04 04:31:00,8.4,0.9,30.06,NE,37,0.0,0.0,71,0.00,,CLR,0.00,VWS V12.07,2013-03-04 10:31:00,
2013-03-04 04:32:00,8.4,0.9,30.06,NE,37,0.0,0.0,71,0.00,,CLR,0.00,VWS V12.07,2013-03-04 10:32:00,
2013-03-04 04:33:00,8.4,0.9,30.06,NE,37,0.0,0.0,71,0.00,,CLR,0.00,VWS V12.07,2013-03-04 10:33:00,
2013-03-04 04:36:00,8.4,0.9,30.06,NE,37,0.0,0.0,71,0.00,,CLR,0.00,VWS V12.07,2013-03-04 10:36:00,
2013-03-04 04:38:00,8.4,0.9,30.06,NE,37,0.0,0.0,71,0.00,,CLR,0.00,VWS V12.07,2013-03-04 10:38:00,
2013-03-04 04:40:00,8.4,0.9,30.06,NE,37,0.0,0.0,71,0.00,,BKN080,0.00,VWS V12.07,2013-03-04 10:40:00,
2013-03-04 04:41:00,8.4,0.9,30.06,NE,37,0.0,0.0,71,0.00,,CLR,0.00,VWS V12.07,2013-03-04 10:41:00,
2013-03-04 04:43:00,8.4,0.9,30.06,NE,37,0.0,0.0,71,0.00,,CLR,0.00,VWS V12.07,2013-03-04 10:43:00,
2013-03-04 04:46:00,8.4,0.9,30.07,NE,37,0.0,0.0,71,0.00,,CLR,0.00,VWS V12.07,2013-03-04 10:46:00,
2013-03-04 04:48:00,8.4,0.9,30.07,NE,37,0.0,0.0,71,0.00,,CLR,0.00,VWS V12.07,2013-03-04 10:48:00,
2013-03-04 04:49:00,8.4,0.9,30.07,NE,37,0.0,0.0,71,0.00,,CLR,0.00,VWS V12.07,2013-03-04 10:49:00,
2013-03-04 04:50:00,8.4,0.9,30.06,NE,37,0.0,0.0,71,0.00,,BKN080,0.00,VWS V12.07,2013-03-04 10:50:00,
2013-03-04 04:52:00,8.4,0.9,30.07,NE,37,0.0,0.0,71,0.00,,CLR,0.00,VWS V12.07,2013-03-04 10:52:00,
2013-03-04 04:53:00,8.4,0.9,30.07,NE,37,0.0,0.0,71,0.00,,CLR,0.00,VWS V12.07,2013-03-04 10:53:00,
2013-03-04 04:54:00,8.4,0.9,30.07,NE,37,0.0,0.0,71,0.00,,CLR,0.00,VWS V12.07,2013-03-04 10:54:00,
2013-03-04 04:55:00,8.4,0.9,30.07,NE,37,0.0,0.0,71,0.00,,CLR,0.00,VWS V12.07,2013-03-04 10:55:00,
2013-03-04 04:57:00,8.4,0.9,30.07,NE,37,0.0,0.0,71,0.00,,CLR,0.00,VWS V12.07,2013-03-04 10:57:00,
2013-03-04 04:59:00,8.4,0.9,30.07,NE,37,0.0,0.0,71,0.00,,CLR,0.00,VWS V12.07,2013-03-04 10:59:00,
2013-03-04 05:00:00,8.4,0.9,30.07,NE,37,0.0,0.0,71,0.00,,CLR,0.00,VWS V12.07,2013-03-04 11:00:00,
2013-03-04 05:02:00,8.4,0.9,30.07,NE,37,0.0,0.0,71,0.00,,CLR,0.00,VWS V12.07,2013-03-04 11:02:00,
2013-03-04 05:04:00,8.4,0.9,30.07,NE,37,0.0,0.0,71,0.00,,CLR,0.00,VWS V12.07,2013-03-04 11:04:00,
2013-03-04 05:05:00,8.4,0.9,30.07,NE,37,0.0,0.0,71,0.00,,CLR,0.00,VWS V12.07,2013-03-04 11:05:00,
2013-03-04 05:06:00,8.4,0.9,30.07,NE,37,0.0,0.0,71,0.00,,CLR,0.00,VWS V12.07,2013-03-04 11:06:00,
2013-03-04 05:07:00,8.4,0.9,30.07,NE,37,0.0,0.0,71,0.00,,CLR,0.00,VWS V12.07,2013-03-04 11:07:00,
2013-03-04 05:09:00,8.4,0.9,30.07,NE,37,0.0,0.0,71,0.00,,CLR,0.00,VWS V12.07,2013-03-04 11:09:00,
2013-03-04 05:10:00,8.4,0.9,30.07,NE,37,0.0,0.0,71,0.00,,CLR,0.00,VWS V12.07,2013-03-04 11:10:00,
2013-03-04 05:11:00,8.4,0.9,30.07,NE,37,0.0,0.0,71,0.00,,CLR,0.00,VWS V12.07,2013-03-04 11:11:00,
2013-03-04 05:13:00,8.4,0.9,30.07,NE,37,0.0,0.0,71,0.00,,CLR,0.00,VWS V12.07,2013-03-04 11:13:00,
2013-03-04 05:14:00,8.4,0.9,30.07,NE,37,0.0,0.0,71,0.00,,CLR,0.00,VWS V12.07,2013-03-04 11:14:00,
2013-03-04 05:15:00,8.4,0.9,30.08,NE,37,0.0,0.0,71,0.00,,CLR,0.00,VWS V12.07,2013-03-04 11:15:00,
2013-03-04 05:16:00,8.4,0.9,30.08,NE,37,0.0,0.0,71,0.00,,CLR,0.00,VWS V12.07,2013-03-04 11:16:00,
2013-03-04 05:18:00,8.4,0.9,30.08,NE,37,0.0,0.0,71,0.00,,CLR,0.00,VWS V12.07,2013-03-04 11:18:00,
2013-03-04 05:19:00,8.4,0.9,30.08,NE,37,0.0,0.0,71,0.00,,CLR,0.00,VWS V12.07,2013-03-04 11:19:00,
2013-03-04 05:20:00,8.4,0.9,30.08,NE,37,0.0,0.0,71,0.00,,CLR,0.00,VWS V12.07,2013-03-04 11:20:00,
2013-03-04 05:22:00,8.4,0.9,30.08,NE,37,0.0,0.0,71,0.00,,CLR,0.00,VWS V12.07,2013-03-04 11:22:00,
2013-03-04 05:23:00,8.4,0.9,30.08,NE,37,0.0,0.0,71,0.00,,CLR,0.00,VWS V12.07,2013-03-04 11:23:00,
2013-03-04 05:24:00,8.4,0.9,30.08,NE,37,0.0,0.0,71,0.00,,CLR,0.00,VWS V12.07,2013-03-04 11:24:00,
2013-03-04 05:25:00,8.4,0.9,30.08,NE,37,0.0,0.0,71,0.00,,CLR,0.00,VWS V12.07,2013-03-04 11:25:00,
2013-03-04 05:27:00,8.4,0.9,30.08,NE,37,0.0,0.0,71,0.00,,CLR,0.00,VWS V12.07,2013-03-04 11:27:00,
2013-03-04 05:28:00,8.4,0.9,30.08,NE,37,0.0,0.0,71,0.00,,CLR,0.00,VWS V12.07,2013-03-04 11:28:00,
2013-03-04 05:29:00,8.4,0.9,30.08,NE,37,0.0,0.0,71,0.00,,CLR,0.00,VWS V12.07,2013-03-04 11:29:00,
2013-03-04 05:30:00,8.4,0.9,30.08,NE,37,0.0,0.0,71,0.00,,CLR,0.00,VWS V12.07,2013-03-04 11:30:00,
2013-03-04 05:32:00,8.4,0.9,30.08,NE,37,0.0,0.0,71,0.00,,CLR,0.00,VWS V12.07,2013-03-04 11:32:00,
2013-03-04 05:33:00,8.4,0.9,30.08,NE,37,0.0,0.0,71,0.00,,CLR,0.00,VWS V12.07,2013-03-04 11:33:00,
2013-03-04 05:35:00,8.4,0.9,30.08,NE,37,0.0,0.0,71,0.00,,CLR,0.00,VWS V12.07,2013-03-04 11:35:00,
2013-03-04 05:37:00,8.4,0.9,30.08,NE,37,0.0,0.0,71,0.00,,CLR,0.00,VWS V12.07,2013-03-04 11:37:00,
2013-03-04 05:39:00,8.4,0.9,30.08,NE,37,0.0,0.0,71,0.00,,CLR,0.00,VWS V12.07,2013-03-04 11:39:00,
2013-03-04 05:40:00,8.4,0.9,30.08,NE,37,0.0,0.0,71,0.00,,CLR,0.00,VWS V12.07,2013-03-04 11:40:00,
2013-03-04 05:42:00,8.4,0.9,30.08,NE,37,0.0,0.0,71,0.00,,CLR,0.00,VWS V12.07,2013-03-04 11:42:00,
2013-03-04 05:44:00,8.4,0.9,30.08,NE,37,0.0,0.0,71,0.00,,CLR,0.00,VWS V12.07,2013-03-04 11:44:00,
2013-03-04 05:45:00,8.4,0.9,30.08,NE,37,0.0,0.0,71,0.00,,CLR,0.00,VWS V12.07,2013-03-04 11:45:00,
2013-03-04 05:47:00,8.4,0.9,30.08,NE,37,0.0,0.0,71,0.00,,CLR,0.00,VWS V12.07,2013-03-04 11:47:00,
2013-03-04 05:49:00,8.4,0.9,30.08,NE,37,0.0,0.0,71,0.00,,CLR,0.00,VWS V12.07,2013-03-04 11:49:00,
2013-03-04 05:50:00,8.4,0.9,30.08,NE,37,0.0,0.0,71,0.00,,CLR,0.00,VWS V12.07,2013-03-04 11:50:00,
2013-03-04 05:51:00,8.4,0.9,30.08,NE,37,0.0,0.0,71,0.00,,CLR,0.00,VWS V12.07,2013-03-04 11:51:00,
2013-03-04 05:52:00,8.4,0.9,30.08,NE,37,0.0,0.0,71,0.00,,CLR,0.00,VWS V12.07,2013-03-04 11:52:00,
2013-03-04 05:55:00,8.4,0.9,30.08,NE,37,0.0,0.0,71,0.00,,CLR,0.00,VWS V12.07,2013-03-04 11:55:00,
2013-03-04 05:56:00,8.4,0.9,30.08,NE,37,0.0,0.0,71,0.00,,CLR,0.00,VWS V12.07,2013-03-04 11:56:00,
2013-03-04 05:57:00,8.4,0.9,30.08,NE,37,0.0,0.0,71,0.00,,CLR,0.00,VWS V12.07,2013-03-04 11:57:00,
2013-03-04 06:00:00,8.4,0.9,30.10,NE,37,0.0,0.0,71,0.00,,CLR,0.00,VWS V12.07,2013-03-04 12:00:00,
2013-03-04 06:01:00,8.4,0.9,30.10,NE,37,0.0,0.0,71,0.00,,CLR,0.00,VWS V12.07,2013-03-04 12:01:00,
2013-03-04 06:02:00,8.4,0.9,30.10,NE,37,0.0,0.0,71,0.00,,CLR,0.00,VWS V12.07,2013-03-04 12:02:00,
2013-03-04 06:05:00,8.4,0.9,30.10,NE,37,0.0,0.0,71,0.00,,CLR,0.00,VWS V12.07,2013-03-04 12:05:00,
2013-03-04 06:06:00,8.4,0.9,30.10,NE,37,0.0,0.0,71,0.00,,CLR,0.00,VWS V12.07,2013-03-04 12:06:00,
2013-03-04 06:07:00,8.4,0.9,30.10,NE,37,0.0,0.0,71,0.00,,CLR,0.00,VWS V12.07,2013-03-04 12:07:00,
2013-03-04 06:10:00,8.4,0.9,30.10,NE,37,0.0,0.0,71,0.00,,CLR,0.00,VWS V12.07,2013-03-04 12:10:00,
2013-03-04 06:11:00,8.4,0.9,30.10,NE,37,0.0,0.0,71,0.00,,CLR,0.00,VWS V12.07,2013-03-04 12:11:00,
2013-03-04 06:12:00,8.4,0.9,30.10,NE,37,0.0,0.0,71,0.00,,CLR,0.00,VWS V12.07,2013-03-04 12:12:00,
2013-03-04 06:16:00,8.4,0.9,30.09,NE,37,0.0,0.0,71,0.00,,CLR,0.00,VWS V12.07,2013-03-04 12:16:00,
2013-03-04 06:17:00,8.4,0.9,30.09,NE,37,0.0,0.0,71,0.00,,CLR,0.00,VWS V12.07,2013-03-04 12:17:00,
2013-03-04 06:18:00,8.4,0.9,30.09,NE,37,0.0,0.0,71,0.00,,CLR,0.00,VWS V12.07,2013-03-04 12:18:00,
2013-03-04 06:20:00,8.4,0.9,30.10,NE,37,0.0,0.0,71,0.00,,BKN080,0.00,VWS V12.07,2013-03-04 12:20:00,
2013-03-04 06:22:00,8.4,0.9,30.09,NE,37,0.0,0.0,71,0.00,,CLR,0.00,VWS V12.07,2013-03-04 12:22:00,
2013-03-04 06:23:00,8.4,0.9,30.09,NE,37,0.0,0.0,71,0.00,,CLR,0.00,VWS V12.07,2013-03-04 12:23:00,
2013-03-04 06:27:00,8.4,0.9,30.09,NE,37,0.0,0.0,71,0.00,,CLR,0.00,VWS V12.07,2013-03-04 12:27:00,
2013-03-04 06:28:00,8.4,0.9,30.09,NE,37,0.0,0.0,71,0.00,,CLR,0.00,VWS V12.07,2013-03-04 12:28:00,
2013-03-04 06:30:00,8.4,0.9,30.09,NE,37,0.0,0.0,71,0.00,,BKN080,0.00,VWS V12.07,2013-03-04 12:30:00,
2013-03-04 06:32:00,8.4,0.9,30.09,NE,37,0.0,0.0,71,0.00,,CLR,0.00,VWS V12.07,2013-03-04 12:32:00,
2013-03-04 06:33:00,8.4,0.9,30.09,NE,37,0.0,0.0,71,0.00,,CLR,0.00,VWS V12.07,2013-03-04 12:33:00,
2013-03-04 06:37:00,8.4,0.9,30.09,NE,37,0.0,0.0,71,0.00,,CLR,0.00,VWS V12.07,2013-03-04 12:37:00,
2013-03-04 06:38:00,8.4,0.9,30.09,NE,37,0.0,0.0,71,0.00,,CLR,0.00,VWS V12.07,2013-03-04 12:38:00,
2013-03-04 06:40:00,8.4,0.9,30.09,NE,37,0.0,0.0,71,0.00,,BKN080,0.00,VWS V12.07,2013-03-04 12:40:00,
2013-03-04 06:42:00,8.4,0.9,30.09,NE,37,0.0,0.0,71,0.00,,CLR,0.00,VWS V12.07,2013-03-04 12:42:00,
2013-03-04 06:43:00,8.4,0.9,30.09,NE,37,0.0,0.0,71,0.00,,CLR,0.00,VWS V12.07,2013-03-04 12:43:00,
2013-03-04 06:48:00,8.4,0.9,30.09,NE,37,0.0,0.0,71,0.00,,CLR,0.00,VWS V12.07,2013-03-04 12:48:00,
2013-03-04 06:49:00,8.4,0.9,30.09,NE,37,0.0,0.0,71,0.00,,CLR,0.00,VWS V12.07,2013-03-04 12:49:00,
2013-03-04 06:50:00,8.4,0.9,30.09,NE,37,0.0,0.0,71,0.00,,BKN080,0.00,VWS V12.07,2013-03-04 12:50:00,
2013-03-04 06:54:00,8.4,0.9,30.09,NE,37,0.0,0.0,71,0.00,,CLR,0.00,VWS V12.07,2013-03-04 12:54:00,
2013-03-04 06:59:00,8.4,0.9,30.09,NE,37,0.0,0.0,71,0.00,,CLR,0.00,VWS V12.07,2013-03-04 12:59:00,
2013-03-04 07:00:00,1.1,-3.6,30.11,NE,37,0.0,0.0,80,0.00,,CLR,0.00,VWS V12.07,2013-03-04 13:00:00,
2013-03-04 07:04:00,1.3,-3.4,30.11,NE,37,1.0,1.0,80,0.00,,CLR,0.00,VWS V12.07,2013-03-04 13:04:00,
2013-03-04 07:05:00,1.3,-3.4,30.11,NE,37,0.0,1.0,80,0.00,,CLR,0.00,VWS V12.07,2013-03-04 13:05:00,
2013-03-04 07:09:00,1.3,-3.4,30.11,NE,37,0.0,1.0,80,0.00,,CLR,0.00,VWS V12.07,2013-03-04 13:09:00,
2013-03-04 07:10:00,1.3,-3.4,30.11,NE,37,0.0,1.0,80,0.00,,CLR,0.00,VWS V12.07,2013-03-04 13:10:00,
2013-03-04 07:14:00,1.7,-2.8,30.16,NE,37,1.0,1.0,81,0.00,,CLR,0.00,VWS V12.07,2013-03-04 13:14:00,
2013-03-04 07:15:00,1.7,-2.8,30.16,NE,37,1.0,1.0,81,0.00,,CLR,0.00,VWS V12.07,2013-03-04 13:15:00,
2013-03-04 07:20:00,2.6,-1.4,30.16,NE,37,1.0,2.0,83,0.00,,CLR,0.00,VWS V12.07,2013-03-04 13:20:00,
2013-03-04 07:21:00,3.0,-1.0,30.16,NE,37,0.0,2.0,83,0.00,,CLR,0.00,VWS V12.07,2013-03-04 13:21:00,
2013-03-04 07:25:00,4.1,0.3,30.16,NE,37,0.0,2.0,84,0.00,,CLR,0.00,VWS V12.07,2013-03-04 13:25:00,
2013-03-04 07:26:00,4.3,0.6,30.16,NE,37,0.0,2.0,84,0.00,,CLR,0.00,VWS V12.07,2013-03-04 13:26:00,
2013-03-04 07:30:00,5.0,1.2,30.15,NE,37,0.0,2.0,84,0.00,,CLR,0.00,VWS V12.07,2013-03-04 13:30:00,
2013-03-04 07:31:00,5.0,1.2,30.15,NE,37,0.0,2.0,84,0.00,,CLR,0.00,VWS V12.07,2013-03-04 13:31:00,
2013-03-04 07:35:00,5.4,1.4,30.15,NE,37,0.0,2.0,83,0.00,,CLR,0.00,VWS V12.07,2013-03-04 13:35:00,
2013-03-04 07:36:00,5.6,1.6,30.15,NE,37,0.0,2.0,83,0.00,,CLR,0.00,VWS V12.07,2013-03-04 13:36:00,
2013-03-04 07:40:00,4.3,0.6,30.16,NE,37,0.0,2.0,84,0.00,,BKN080,0.00,VWS V12.07,2013-03-04 13:40:00,
2013-03-04 07:41:00,6.0,2.0,30.15,NE,37,0.0,2.0,83,0.00,,CLR,0.00,VWS V12.07,2013-03-04 13:41:00,
2013-03-04 07:46:00,6.5,2.5,30.15,NE,37,0.0,2.0,83,0.00,,CLR,0.00,VWS V12.07,2013-03-04 13:46:00,
2013-03-04 07:47:00,6.7,2.6,30.15,NE,37,0.0,2.0,83,0.00,,CLR,0.00,VWS V12.07,2013-03-04 13:47:00,
2013-03-04 07:50:00,5.4,1.4,30.15,NE,37,1.0,1.0,83,0.00,,BKN080,0.00,VWS V12.07,2013-03-04 13:50:00,
2013-03-04 07:51:00,7.2,3.1,30.15,NE,37,0.0,2.0,83,0.00,,CLR,0.00,VWS V12.07,2013-03-04 13:51:00,
2013-03-04 07:52:00,7.2,3.1,30.15,NE,37,0.0,2.0,83,0.00,,CLR,0.00,VWS V12.07,2013-03-04 13:52:00,
2013-03-04 07:53:00,7.2,3.1,30.15,NE,37,0.0,2.0,83,0.00,,CLR,0.00,VWS V12.07,2013-03-04 13:53:00,
2013-03-04 07:56:00,7.0,2.2,30.15,NE,37,0.0,2.0,80,0.00,,CLR,0.00,VWS V12.07,2013-03-04 13:56:00,
2013-03-04 07:57:00,7.0,1.9,30.15,NE,37,0.0,2.0,79,0.00,,CLR,0.00,VWS V12.07,2013-03-04 13:57:00,
2013-03-04 07:58:00,7.0,1.9,30.15,NE,37,0.0,2.0,79,0.00,,CLR,0.00,VWS V12.07,2013-03-04 13:58:00,
2013-03-04 08:00:00,6.5,2.5,30.15,NE,37,0.0,1.0,83,0.00,,BKN080,0.00,VWS V12.07,2013-03-04 14:00:00,
2013-03-04 08:01:00,6.9,0.9,30.15,NE,37,0.0,2.0,76,0.00,,CLR,0.00,VWS V12.07,2013-03-04 14:01:00,
2013-03-04 08:02:00,6.9,0.9,30.15,NE,37,0.0,2.0,76,0.00,,CLR,0.00,VWS V12.07,2013-03-04 14:02:00,
2013-03-04 08:03:00,6.9,0.9,30.15,NE,37,0.0,2.0,76,0.00,,CLR,0.00,VWS V12.07,2013-03-04 14:03:00,
2013-03-04 08:06:00,7.0,0.8,30.15,NE,37,0.0,2.0,75,0.00,,CLR,0.00,VWS V12.07,2013-03-04 14:06:00,
2013-03-04 08:07:00,7.0,0.8,30.15,NE,37,0.0,2.0,75,0.00,,CLR,0.00,VWS V12.07,2013-03-04 14:07:00,
2013-03-04 08:08:00,7.2,0.7,30.15,NE,37,0.0,2.0,74,0.00,,CLR,0.00,VWS V12.07,2013-03-04 14:08:00,
2013-03-04 08:10:00,7.2,2.3,30.15,NE,37,0.0,1.0,80,0.00,,BKN080,0.00,VWS V12.07,2013-03-04 14:10:00,
2013-03-04 08:11:00,7.7,2.0,30.15,NE,37,0.0,2.0,77,0.00,,CLR,0.00,VWS V12.07,2013-03-04 14:11:00,
2013-03-04 08:12:00,7.9,1.9,30.15,NE,37,0.0,2.0,76,0.00,,CLR,0.00,VWS V12.07,2013-03-04 14:12:00,
2013-03-04 08:13:00,7.9,1.9,30.15,NE,37,0.0,2.0,76,0.00,,CLR,0.00,VWS V12.07,2013-03-04 14:13:00,
2013-03-04 08:17:00,8.4,1.8,30.15,NE,37,0.0,2.0,74,0.00,,CLR,0.00,VWS V12.07,2013-03-04 14:17:00,
2013-03-04 08:18:00,8.6,1.7,30.15,NE,37,0.0,2.0,73,0.00,,CLR,0.00,VWS V12.07,2013-03-04 14:18:00,
2013-03-04 08:19:00,8.6,1.7,30.15,NE,37,0.0,2.0,73,0.00,,CLR,0.00,VWS V12.07,2013-03-04 14:19:00,
2013-03-04 08:20:00,7.0,0.8,30.15,NE,37,0.0,0.0,75,0.00,,BKN080,0.00,VWS V12.07,2013-03-04 14:20:00,
2013-03-04 08:22:00,8.8,1.6,30.15,NE,37,0.0,2.0,72,0.00,,CLR,0.00,VWS V12.07,2013-03-04 14:22:00,
2013-03-04 08:23:00,9.0,1.2,30.15,NE,37,0.0,2.0,70,0.00,,CLR,0.00,VWS V12.07,2013-03-04 14:23:00,
2013-03-04 08:24:00,9.0,1.2,30.15,NE,37,0.0,2.0,70,0.00,,CLR,0.00,VWS V12.07,2013-03-04 14:24:00,
2013-03-04 08:27:00,8.8,0.4,30.15,NE,37,0.0,2.0,68,0.00,,CLR,0.00,VWS V12.07,2013-03-04 14:27:00,
2013-03-04 08:28:00,8.8,0.4,30.15,NE,37,0.0,2.0,68,0.00,,CLR,0.00,VWS V12.07,2013-03-04 14:28:00,
2013-03-04 08:29:00,8.8,0.7,30.15,NE,37,0.0,2.0,69,0.00,,CLR,0.00,VWS V12.07,2013-03-04 14:29:00,
2013-03-04 08:30:00,8.3,2.0,30.15,NE,37,0.0,1.0,75,0.00,,BKN080,0.00,VWS V12.07,2013-03-04 14:30:00,
2013-03-04 08:32:00,9.2,1.4,30.15,ESE,115,0.0,2.0,70,0.00,,CLR,0.00,VWS V12.07,2013-03-04 14:32:00,
2013-03-04 08:33:00,9.2,1.7,30.15,ESE,115,0.0,2.0,71,0.00,,CLR,0.00,VWS V12.07,2013-03-04 14:33:00,
2013-03-04 08:34:00,9.3,1.8,30.15,ESE,116,0.0,2.0,71,0.00,,CLR,0.00,VWS V12.07,2013-03-04 14:34:00,
2013-03-04 08:35:00,9.3,1.8,30.15,ESE,115,0.0,2.0,71,0.00,,CLR,0.00,VWS V12.07,2013-03-04 14:35:00,
2013-03-04 08:37:00,9.9,3.3,30.15,ESE,115,0.0,2.0,74,0.00,,CLR,0.00,VWS V12.07,2013-03-04 14:37:00,
2013-03-04 08:38:00,10.2,3.6,30.15,ESE,115,0.0,2.0,74,0.00,,CLR,0.00,VWS V12.07,2013-03-04 14:38:00,
2013-03-04 08:39:00,10.5,4.2,30.15,ESE,115,0.0,2.0,75,0.00,,CLR,0.00,VWS V12.07,2013-03-04 14:39:00,
2013-03-04 08:40:00,10.5,4.2,30.15,ESE,115,0.0,2.0,75,0.00,,CLR,0.00,VWS V12.07,2013-03-04 14:40:00,
2013-03-04 08:43:00,11.4,5.6,30.15,ESE,115,0.0,2.0,77,0.00,,CLR,0.00,VWS V12.07,2013-03-04 14:43:00,
2013-03-04 08:44:00,11.6,5.8,30.15,ESE,115,0.0,2.0,77,0.00,,CLR,0.00,VWS V12.07,2013-03-04 14:44:00,
2013-03-04 08:45:00,11.9,5.8,30.15,ESE,115,0.0,2.0,76,0.00,,CLR,0.00,VWS V12.07,2013-03-04 14:45:00,
2013-03-04 08:46:00,12.1,6.0,30.15,ESE,115,0.0,2.0,76,0.00,,CLR,0.00,VWS V12.07,2013-03-04 14:46:00,
2013-03-04 08:48:00,12.4,6.3,30.15,ESE,115,0.0,2.0,76,0.00,,CLR,0.00,VWS V12.07,2013-03-04 14:48:00,
2013-03-04 08:49:00,12.6,6.5,30.15,ESE,115,0.0,2.0,76,0.00,,CLR,0.00,VWS V12.07,2013-03-04 14:49:00,
2013-03-04 08:50:00,12.8,6.4,30.15,ESE,116,0.0,2.0,75,0.00,,CLR,0.00,VWS V12.07,2013-03-04 14:50:00,
2013-03-04 08:51:00,12.9,6.8,30.15,ESE,115,0.0,2.0,76,0.00,,CLR,0.00,VWS V12.07,2013-03-04 14:51:00,
2013-03-04 08:53:00,13.3,7.2,30.15,ESE,115,0.0,2.0,76,0.00,,CLR,0.00,VWS V12.07,2013-03-04 14:53:00,
2013-03-04 08:54:00,13.5,7.4,30.15,ESE,115,0.0,2.0,76,0.00,,CLR,0.00,VWS V12.07,2013-03-04 14:54:00,
2013-03-04 08:56:00,13.8,7.9,30.15,ESE,115,0.0,2.0,77,0.00,,CLR,0.00,VWS V12.07,2013-03-04 14:56:00,
2013-03-04 08:59:00,14.3,8.1,30.15,ESE,115,0.0,2.0,76,0.00,,CLR,0.00,VWS V12.07,2013-03-04 14:59:00,
2013-03-04 09:00:00,11.9,5.8,30.15,ESE,115,0.0,0.0,76,0.00,,BKN080,0.00,VWS V12.07,2013-03-04 15:00:00,
2013-03-04 09:01:00,14.8,8.6,30.15,ESE,115,0.0,2.0,76,0.00,,CLR,0.00,VWS V12.07,2013-03-04 15:01:00,
2013-03-04 09:02:00,14.8,8.6,30.15,ESE,115,1.0,2.0,76,0.00,,CLR,0.00,VWS V12.07,2013-03-04 15:02:00,
2013-03-04 09:04:00,15.4,9.2,30.15,East,96,2.0,4.0,76,0.00,,CLR,0.00,VWS V12.07,2013-03-04 15:04:00,
2013-03-04 09:05:00,15.4,9.2,30.15,East,90,1.0,4.0,76,0.00,,CLR,0.00,VWS V12.07,2013-03-04 15:05:00,
2013-03-04 09:06:00,15.7,9.2,30.15,East,98,1.0,4.0,75,0.00,,CLR,0.00,VWS V12.07,2013-03-04 15:06:00,
2013-03-04 09:07:00,15.9,9.4,30.15,East,97,1.0,4.0,75,0.00,,CLR,0.00,VWS V12.07,2013-03-04 15:07:00,
2013-03-04 09:10:00,16.2,9.7,30.15,ESE,102,2.0,4.0,75,0.00,,CLR,0.00,VWS V12.07,2013-03-04 15:10:00,
2013-03-04 09:12:00,16.5,10.0,30.15,SE,139,0.0,4.0,75,0.00,,CLR,0.00,VWS V12.07,2013-03-04 15:12:00,
2013-03-04 09:15:00,16.9,10.4,30.14,SE,137,2.0,4.0,75,0.00,,CLR,0.00,VWS V12.07,2013-03-04 15:15:00,
2013-03-04 09:17:00,17.0,10.5,30.14,SE,141,0.0,4.0,75,0.00,,CLR,0.00,VWS V12.07,2013-03-04 15:17:00,
2013-03-04 09:20:00,17.0,10.2,30.14,SSE,160,2.0,4.0,74,0.00,,CLR,0.00,VWS V12.07,2013-03-04 15:20:00,
2013-03-04 09:22:00,17.0,10.2,30.14,SSE,160,0.0,4.0,74,0.00,,CLR,0.00,VWS V12.07,2013-03-04 15:22:00,
2013-03-04 09:23:00,17.0,10.2,30.14,SSE,160,0.0,4.0,74,0.00,,CLR,0.00,VWS V12.07,2013-03-04 15:23:00,
2013-03-04 09:25:00,17.2,10.4,30.14,SSE,156,1.0,4.0,74,0.00,,CLR,0.00,VWS V12.07,2013-03-04 15:25:00,
2013-03-04 09:28:00,17.5,10.9,30.14,ESE,117,1.0,4.0,75,0.00,,CLR,0.00,VWS V12.07,2013-03-04 15:28:00,
2013-03-04 09:30:00,18.0,11.4,30.13,ENE,72,2.0,6.0,75,0.00,,CLR,0.00,VWS V12.07,2013-03-04 15:30:00,
2013-03-04 09:33:00,18.3,11.7,30.13,SE,137,4.0,6.0,75,0.00,,CLR,0.00,VWS V12.07,2013-03-04 15:33:00,
2013-03-04 09:35:00,18.4,11.5,30.13,ESE,112,1.0,6.0,74,0.00,,CLR,0.00,VWS V12.07,2013-03-04 15:35:00,
2013-03-04 09:36:00,18.4,11.5,30.13,NE,47,0.0,6.0,74,0.00,,CLR,0.00,VWS V12.07,2013-03-04 15:36:00,
2013-03-04 09:38:00,18.6,11.7,30.13,SE,138,1.0,6.0,74,0.00,,CLR,0.00,VWS V12.07,2013-03-04 15:38:00,
2013-03-04 09:40:00,18.9,12.0,30.13,ESE,113,3.0,7.0,74,0.00,,CLR,0.00,VWS V12.07,2013-03-04 15:40:00,
2013-03-04 09:41:00,18.9,11.7,30.13,ESE,119,3.0,7.0,73,0.00,,CLR,0.00,VWS V12.07,2013-03-04 15:41:00,
2013-03-04 09:44:00,19.1,11.9,30.13,SSE,158,3.0,7.0,73,0.00,,CLR,0.00,VWS V12.07,2013-03-04 15:44:00,
2013-03-04 09:46:00,19.2,12.0,30.13,ESE,111,3.0,7.0,73,0.00,,CLR,0.00,VWS V12.07,2013-03-04 15:46:00,
2013-03-04 09:49:00,19.4,12.2,30.13,SE,131,2.0,7.0,73,0.00,,CLR,0.00,VWS V12.07,2013-03-04 15:49:00,
2013-03-04 09:50:00,18.4,11.5,30.13,ESE,115,1.0,6.0,74,0.00,,BKN080,0.00,VWS V12.07,2013-03-04 15:50:00,
2013-03-04 09:51:00,19.5,12.0,30.13,East,96,0.0,7.0,72,0.00,,CLR,0.00,VWS V12.07,2013-03-04 15:51:00,
2013-03-04 09:52:00,19.7,12.1,30.13,SE,138,3.0,7.0,72,0.00,,CLR,0.00,VWS V12.07,2013-03-04 15:52:00,
2013-03-04 09:54:00,19.9,12.3,30.13,SE,131,5.0,7.0,72,0.00,,CLR,0.00,VWS V12.07,2013-03-04 15:54:00,
2013-03-04 09:55:00,19.9,12.3,30.13,SE,143,4.0,7.0,72,0.00,,CLR,0.00,VWS V12.07,2013-03-04 15:55:00,
2013-03-04 09:56:00,19.9,11.7,30.13,SSE,152,0.0,7.0,70,0.00,,CLR,0.00,VWS V12.07,2013-03-04 15:56:00,
2013-03-04 09:57:00,19.9,12.0,30.13,South,169,3.0,7.0,71,0.00,,CLR,0.00,VWS V12.07,2013-03-04 15:57:00,
2013-03-04 09:59:00,20.2,12.3,30.13,SE,130,3.0,7.0,71,0.00,,CLR,0.00,VWS V12.07,2013-03-04 15:59:00,
2013-03-04 10:00:00,20.2,12.3,30.13,SSE,152,1.0,7.0,71,0.00,,CLR,0.00,VWS V12.07,2013-03-04 16:00:00,
2013-03-04 10:01:00,20.3,12.1,30.13,SSE,151,1.0,7.0,70,0.00,,CLR,0.00,VWS V12.07,2013-03-04 16:01:00,
2013-03-04 10:02:00,20.5,12.3,30.13,East,89,0.0,7.0,70,0.00,,CLR,0.00,VWS V12.07,2013-03-04 16:02:00,
2013-03-04 10:04:00,20.8,12.6,30.13,ESE,112,2.0,7.0,70,0.00,,CLR,0.00,VWS V12.07,2013-03-04 16:04:00,
2013-03-04 10:05:00,21.0,12.4,30.13,ESE,112,2.0,7.0,69,0.00,,CLR,0.00,VWS V12.07,2013-03-04 16:05:00,
2013-03-04 10:06:00,21.1,12.2,30.13,SSE,167,3.0,7.0,68,0.00,,CLR,0.00,VWS V12.07,2013-03-04 16:06:00,
2013-03-04 10:07:00,21.3,12.1,30.13,ESE,118,1.0,9.0,67,0.00,,CLR,0.00,VWS V12.07,2013-03-04 16:07:00,
2013-03-04 10:09:00,21.3,12.1,30.13,NE,46,3.0,9.0,67,0.00,,CLR,0.00,VWS V12.07,2013-03-04 16:09:00,
2013-03-04 10:10:00,21.4,12.2,30.13,NE,47,2.0,9.0,67,0.00,,CLR,0.00,VWS V12.07,2013-03-04 16:10:00,
2013-03-04 10:12:00,21.4,11.8,30.13,NE,35,3.0,9.0,66,0.00,,CLR,0.00,VWS V12.07,2013-03-04 16:12:00,
2013-03-04 10:13:00,21.4,11.8,30.13,ESE,120,1.0,9.0,66,0.00,,CLR,0.00,VWS V12.07,2013-03-04 16:13:00,
2013-03-04 10:14:00,21.4,12.2,30.13,East,88,1.0,9.0,67,0.00,,CLR,0.00,VWS V12.07,2013-03-04 16:14:00,
2013-03-04 10:15:00,21.6,12.0,30.13,East,89,1.0,9.0,66,0.00,,CLR,0.00,VWS V12.07,2013-03-04 16:15:00,
2013-03-04 10:17:00,21.8,12.2,30.13,ENE,78,3.0,9.0,66,0.00,,CLR,0.00,VWS V12.07,2013-03-04 16:17:00,
2013-03-04 10:18:00,21.9,12.0,30.13,NNW,348,2.0,9.0,65,0.00,,CLR,0.00,VWS V12.07,2013-03-04 16:18:00,
2013-03-04 10:20:00,22.1,12.1,30.13,NNE,18,0.0,9.0,65,0.00,,CLR,0.00,VWS V12.07,2013-03-04 16:20:00,
2013-03-04 10:22:00,22.2,11.9,30.13,SE,131,2.0,9.0,64,0.00,,CLR,0.00,VWS V12.07,2013-03-04 16:22:00,
2013-03-04 10:24:00,22.2,11.9,30.13,ENE,68,4.0,9.0,64,0.00,,CLR,0.00,VWS V12.07,2013-03-04 16:24:00,
2013-03-04 10:25:00,22.2,11.9,30.13,ENE,78,3.0,9.0,64,0.00,,CLR,0.00,VWS V12.07,2013-03-04 16:25:00,
2013-03-04 10:28:00,22.4,12.1,30.13,SSE,158,0.0,9.0,64,0.00,,CLR,0.00,VWS V12.07,2013-03-04 16:28:00,
2013-03-04 10:29:00,22.7,12.4,30.13,SSE,158,1.0,9.0,64,0.00,,CLR,0.00,VWS V12.07,2013-03-04 16:29:00,
2013-03-04 10:30:00,22.7,12.0,30.12,SSE,158,2.0,9.0,63,0.00,,CLR,0.00,VWS V12.07,2013-03-04 16:30:00,
2013-03-04 10:33:00,23.2,12.1,30.12,SSE,150,4.0,9.0,62,0.00,,CLR,0.00,VWS V12.07,2013-03-04 16:33:00,
2013-03-04 10:34:00,23.2,11.4,30.12,SE,124,2.0,9.0,60,0.00,,CLR,0.00,VWS V12.07,2013-03-04 16:34:00,
2013-03-04 10:35:00,23.2,11.4,30.12,SE,124,0.0,9.0,60,0.00,,CLR,0.00,VWS V12.07,2013-03-04 16:35:00,
2013-03-04 10:38:00,23.2,11.8,30.12,SE,128,2.0,9.0,61,0.00,,CLR,0.00,VWS V12.07,2013-03-04 16:38:00,
2013-03-04 10:40:00,23.3,11.9,30.12,SSE,153,0.0,9.0,61,0.00,,CLR,0.00,VWS V12.07,2013-03-04 16:40:00,
2013-03-04 10:41:00,23.6,12.5,30.12,ESE,105,1.0,9.0,62,0.00,,CLR,0.00,VWS V12.07,2013-03-04 16:41:00,
2013-03-04 10:43:00,23.8,12.3,30.12,SSE,147,2.0,9.0,61,0.00,,CLR,0.00,VWS V12.07,2013-03-04 16:43:00,
2013-03-04 10:45:00,23.8,12.0,30.12,SE,125,1.0,9.0,60,0.00,,CLR,0.00,VWS V12.07,2013-03-04 16:45:00,
2013-03-04 10:46:00,23.8,12.3,30.12,SSE,152,3.0,9.0,61,0.00,,CLR,0.00,VWS V12.07,2013-03-04 16:46:00,
2013-03-04 10:47:00,23.8,12.7,30.12,SE,124,2.0,9.0,62,0.00,,CLR,0.00,VWS V12.07,2013-03-04 16:47:00,
2013-03-04 10:48:00,24.1,13.0,30.12,NNE,26,2.0,9.0,62,0.00,,CLR,0.00,VWS V12.07,2013-03-04 16:48:00,
2013-03-04 10:50:00,24.5,13.4,30.12,NE,34,2.0,9.0,62,0.00,,CLR,0.00,VWS V12.07,2013-03-04 16:50:00,
2013-03-04 10:51:00,24.7,13.2,30.12,NE,34,0.0,9.0,61,0.00,,CLR,0.00,VWS V12.07,2013-03-04 16:51:00,
2013-03-04 10:52:00,24.8,13.3,30.12,NE,53,1.0,9.0,61,0.00,,CLR,0.00,VWS V12.07,2013-03-04 16:52:00,
2013-03-04 10:54:00,25.1,12.8,30.12,NNW,347,1.0,9.0,59,0.00,,CLR,0.00,VWS V12.07,2013-03-04 16:54:00,
2013-03-04 10:56:00,25.1,12.4,30.12,South,170,1.0,9.0,58,0.00,,CLR,0.00,VWS V12.07,2013-03-04 16:56:00,
2013-03-04 10:57:00,25.1,12.8,30.12,East,96,2.0,9.0,59,0.00,,CLR,0.00,VWS V12.07,2013-03-04 16:57:00,
2013-03-04 10:59:00,25.3,12.2,30.12,NNE,18,2.0,9.0,57,0.00,,CLR,0.00,VWS V12.07,2013-03-04 16:59:00,
2013-03-04 11:00:00,23.8,11.9,30.12,SE,125,1.0,6.0,60,0.00,,BKN080,0.00,VWS V12.07,2013-03-04 17:00:00,
2013-03-04 11:01:00,25.3,11.8,30.11,ENE,74,4.0,9.0,56,0.00,,CLR,0.00,VWS V12.07,2013-03-04 17:01:00,
2013-03-04 11:02:00,25.3,11.4,30.11,ENE,59,0.0,9.0,55,0.00,,CLR,0.00,VWS V12.07,2013-03-04 17:02:00,
2013-03-04 11:04:00,25.4,11.1,30.11,SE,139,2.0,9.0,54,0.00,,CLR,0.00,VWS V12.07,2013-03-04 17:04:00,
2013-03-04 11:06:00,25.6,11.3,30.11,ENE,63,2.0,9.0,54,0.00,,CLR,0.00,VWS V12.07,2013-03-04 17:06:00,
2013-03-04 11:07:00,25.8,11.9,30.11,East,80,1.0,9.0,55,0.00,,CLR,0.00,VWS V12.07,2013-03-04 17:07:00,
2013-03-04 11:09:00,25.7,11.4,30.11,NE,44,4.0,9.0,54,0.00,,CLR,0.00,VWS V12.07,2013-03-04 17:09:00,
2013-03-04 11:10:00,25.1,12.4,30.12,South,169,3.0,5.0,58,0.00,,BKN080,0.00,VWS V12.07,2013-03-04 17:10:00,
2013-03-04 11:11:00,25.8,11.9,30.11,SE,124,6.0,9.0,55,0.00,,CLR,0.00,VWS V12.07,2013-03-04 17:11:00,
2013-03-04 11:12:00,25.7,10.9,30.11,ESE,118,3.0,9.0,53,0.00,,CLR,0.00,VWS V12.07,2013-03-04 17:12:00,
2013-03-04 11:13:00,25.7,10.9,30.11,ESE,108,3.0,9.0,53,0.00,,CLR,0.00,VWS V12.07,2013-03-04 17:13:00,
2013-03-04 11:14:00,25.7,11.8,30.10,SSE,160,3.0,9.0,55,0.00,,CLR,0.00,VWS V12.07,2013-03-04 17:14:00,
2013-03-04 11:16:00,25.6,11.3,30.10,SE,137,1.0,9.0,54,0.00,,CLR,0.00,VWS V12.07,2013-03-04 17:16:00,
2013-03-04 11:18:00,25.8,11.9,30.10,ENE,68,0.0,9.0,55,0.00,,CLR,0.00,VWS V12.07,2013-03-04 17:18:00,
2013-03-04 11:20:00,26.6,12.6,30.10,NE,51,1.0,9.0,55,0.00,,CLR,0.00,VWS V12.07,2013-03-04 17:20:00,
2013-03-04 11:22:00,26.9,12.5,30.10,ESE,105,3.0,9.0,54,0.00,,CLR,0.00,VWS V12.07,2013-03-04 17:22:00,
2013-03-04 11:23:00,26.9,12.1,30.10,East,86,2.0,9.0,53,0.00,,CLR,0.00,VWS V12.07,2013-03-04 17:23:00,
2013-03-04 11:25:00,26.7,12.3,30.10,SSE,150,1.0,9.0,54,0.00,,CLR,0.00,VWS V12.07,2013-03-04 17:25:00,
2013-03-04 11:27:00,26.6,11.8,30.10,North,0,4.0,10.0,53,0.00,,CLR,0.00,VWS V12.07,2013-03-04 17:27:00,
2013-03-04 11:28:00,26.6,10.9,30.10,SE,127,1.0,10.0,51,0.00,,CLR,0.00,VWS V12.07,2013-03-04 17:28:00,
2013-03-04 11:30:00,26.7,11.9,30.10,SE,136,2.0,10.0,53,0.00,,CLR,0.00,VWS V12.07,2013-03-04 17:30:00,
2013-03-04 11:32:00,26.7,12.3,30.10,SE,131,4.0,10.0,54,0.00,,CLR,0.00,VWS V12.07,2013-03-04 17:32:00,
2013-03-04 11:33:00,26.7,12.7,30.10,NNW,347,1.0,10.0,55,0.00,,CLR,0.00,VWS V12.07,2013-03-04 17:33:00,
2013-03-04 11:35:00,27.2,14.0,30.10,SE,132,3.0,10.0,57,0.00,,CLR,0.00,VWS V12.07,2013-03-04 17:35:00,
2013-03-04 11:37:00,27.2,11.5,30.10,SSE,159,4.0,10.0,51,0.00,,CLR,0.00,VWS V12.07,2013-03-04 17:37:00,
2013-03-04 11:38:00,27.0,10.4,30.10,East,88,3.0,10.0,49,0.00,,CLR,0.00,VWS V12.07,2013-03-04 17:38:00,
2013-03-04 11:39:00,27.0,10.4,30.10,ENE,62,4.0,10.0,49,0.00,,CLR,0.00,VWS V12.07,2013-03-04 17:39:00,
2013-03-04 11:40:00,26.7,12.3,30.10,SSE,150,1.0,5.0,54,0.00,,BKN080,0.00,VWS V12.07,2013-03-04 17:40:00,
2013-03-04 11:41:00,26.9,10.8,30.10,SSE,159,3.0,10.0,50,0.00,,CLR,0.00,VWS V12.07,2013-03-04 17:41:00,
2013-03-04 11:42:00,27.0,10.9,30.10,NE,55,2.0,10.0,50,0.00,,CLR,0.00,VWS V12.07,2013-03-04 17:42:00,
2013-03-04 11:44:00,27.0,9.5,30.10,ESE,121,1.0,10.0,47,0.00,,CLR,0.00,VWS V12.07,2013-03-04 17:44:00,
2013-03-04 11:46:00,27.6,10.9,30.09,SE,143,2.0,12.0,49,0.00,,CLR,0.00,VWS V12.07,2013-03-04 17:46:00,
2013-03-04 11:47:00,27.8,10.2,30.09,SE,136,1.0,12.0,47,0.00,,CLR,0.00,VWS V12.07,2013-03-04 17:47:00,
2013-03-04 11:49:00,27.9,10.3,30.09,North,4,4.0,12.0,47,0.00,,CLR,0.00,VWS V12.07,2013-03-04 17:49:00,
2013-03-04 11:50:00,28.1,10.9,30.09,ENE,75,2.0,12.0,48,0.00,,CLR,0.00,VWS V12.07,2013-03-04 17:50:00,
2013-03-04 11:51:00,28.1,10.9,30.09,ESE,120,1.0,12.0,48,0.00,,CLR,0.00,VWS V12.07,2013-03-04 17:51:00,
2013-03-04 11:52:00,28.2,11.5,30.09,SSE,147,2.0,12.0,49,0.00,,CLR,0.00,VWS V12.07,2013-03-04 17:52:00,
2013-03-04 11:54:00,28.1,11.4,30.09,SE,130,6.0,12.0,49,0.00,,CLR,0.00,VWS V12.07,2013-03-04 17:54:00,
2013-03-04 11:55:00,27.9,10.3,30.09,SE,143,4.0,12.0,47,0.00,,CLR,0.00,VWS V12.07,2013-03-04 17:55:00,
2013-03-04 11:57:00,27.8,10.2,30.09,East,101,3.0,12.0,47,0.00,,CLR,0.00,VWS V12.07,2013-03-04 17:57:00,
2013-03-04 11:59:00,27.9,10.3,30.08,ENE,77,3.0,12.0,47,0.00,,CLR,0.00,VWS V12.07,2013-03-04 17:59:00,
2013-03-04 12:00:00,28.1,10.9,30.08,NE,48,1.0,12.0,48,0.00,,CLR,0.00,VWS V12.07,2013-03-04 18:00:00,
2013-03-04 12:02:00,28.2,11.0,30.08,ESE,118,3.0,12.0,48,0.00,,CLR,0.00,VWS V12.07,2013-03-04 18:02:00,
2013-03-04 12:03:00,28.1,10.0,30.08,NNE,30,4.0,12.0,46,0.00,,CLR,0.00,VWS V12.07,2013-03-04 18:03:00,
2013-03-04 12:04:00,27.9,9.8,30.08,ENE,70,4.0,12.0,46,0.00,,CLR,0.00,VWS V12.07,2013-03-04 18:04:00,
2013-03-04 12:05:00,27.8,10.2,30.08,South,181,3.0,12.0,47,0.00,,CLR,0.00,VWS V12.07,2013-03-04 18:05:00,
2013-03-04 12:07:00,27.8,10.2,30.08,East,100,0.0,12.0,47,0.00,,CLR,0.00,VWS V12.07,2013-03-04 18:07:00,
2013-03-04 12:08:00,27.8,10.7,30.08,East,100,2.0,12.0,48,0.00,,CLR,0.00,VWS V12.07,2013-03-04 18:08:00,
2013-03-04 12:09:00,28.1,10.0,30.08,ENE,63,3.0,12.0,46,0.00,,CLR,0.00,VWS V12.07,2013-03-04 18:09:00,
2013-03-04 12:10:00,28.2,10.1,30.08,ESE,120,1.0,12.0,46,0.00,,CLR,0.00,VWS V12.07,2013-03-04 18:10:00,
2013-03-04 12:12:00,28.4,10.3,30.08,ENE,57,1.0,12.0,46,0.00,,CLR,0.00,VWS V12.07,2013-03-04 18:12:00,
2013-03-04 12:13:00,28.5,9.9,30.08,ENE,58,3.0,12.0,45,0.00,,CLR,0.00,VWS V12.07,2013-03-04 18:13:00,
2013-03-04 12:15:00,28.5,10.4,30.08,East,88,0.0,12.0,46,0.00,,CLR,0.00,VWS V12.07,2013-03-04 18:15:00,
2013-03-04 12:16:00,28.7,10.6,30.08,ENE,71,4.0,12.0,46,0.00,,CLR,0.00,VWS V12.07,2013-03-04 18:16:00,
2013-03-04 12:18:00,28.7,10.6,30.08,NE,35,1.0,12.0,46,0.00,,CLR,0.00,VWS V12.07,2013-03-04 18:18:00,
2013-03-04 12:20:00,27.8,10.2,30.08,SSW,205,4.0,7.0,47,0.00,,BKN080,0.00,VWS V12.07,2013-03-04 18:20:00,
2013-03-04 12:21:00,29.0,10.3,30.08,North,358,0.0,12.0,45,0.00,,CLR,0.00,VWS V12.07,2013-03-04 18:21:00,
2013-03-04 12:23:00,29.0,10.3,30.08,NNE,27,4.0,12.0,45,0.00,,CLR,0.00,VWS V12.07,2013-03-04 18:23:00,
2013-03-04 12:24:00,28.8,10.1,30.08,NNE,25,9.0,12.0,45,0.00,,CLR,0.00,VWS V12.07,2013-03-04 18:24:00,
2013-03-04 12:26:00,28.8,11.6,30.08,East,90,3.0,12.0,48,0.00,,CLR,0.00,VWS V12.07,2013-03-04 18:26:00,
2013-03-04 12:29:00,29.0,10.3,30.08,SE,135,2.0,12.0,45,0.00,,CLR,0.00,VWS V12.07,2013-03-04 18:29:00,
2013-03-04 12:30:00,29.0,9.8,30.08,SE,143,3.0,12.0,44,0.00,,CLR,0.00,VWS V12.07,2013-03-04 18:30:00,
2013-03-04 12:34:00,28.7,9.6,30.08,SE,146,9.0,12.0,44,0.00,,CLR,0.00,VWS V12.07,2013-03-04 18:34:00,
2013-03-04 12:35:00,28.5,9.9,30.08,SE,138,6.0,12.0,45,0.00,,CLR,0.00,VWS V12.07,2013-03-04 18:35:00,
2013-03-04 12:39:00,28.8,9.6,30.08,SSE,154,3.0,12.0,44,0.00,,CLR,0.00,VWS V12.07,2013-03-04 18:39:00,
2013-03-04 12:40:00,28.7,9.6,30.08,SE,146,2.0,12.0,44,0.00,,CLR,0.00,VWS V12.07,2013-03-04 18:40:00,
2013-03-04 12:44:00,28.7,10.1,30.07,SSE,156,4.0,12.0,45,0.00,,CLR,0.00,VWS V12.07,2013-03-04 18:44:00,
2013-03-04 12:45:00,28.7,10.1,30.07,SE,141,4.0,12.0,45,0.00,,CLR,0.00,VWS V12.07,2013-03-04 18:45:00,
2013-03-04 12:46:00,28.7,10.1,30.07,ESE,123,3.0,12.0,45,0.00,,CLR,0.00,VWS V12.07,2013-03-04 18:46:00,
2013-03-04 12:50:00,29.0,8.8,30.07,SW,217,0.0,12.0,42,0.00,,CLR,0.00,VWS V12.07,2013-03-04 18:50:00,
2013-03-04 12:51:00,29.1,9.4,30.07,ENE,75,2.0,12.0,43,0.00,,CLR,0.00,VWS V12.07,2013-03-04 18:51:00,
2013-03-04 12:55:00,30.0,10.2,30.07,ENE,76,2.0,12.0,43,0.00,,CLR,0.00,VWS V12.07,2013-03-04 18:55:00,
2013-03-04 12:56:00,30.0,10.2,30.07,SE,126,2.0,12.0,43,0.00,,CLR,0.00,VWS V12.07,2013-03-04 18:56:00,
2013-03-04 13:00:00,30.3,10.0,30.07,SE,141,4.0,12.0,42,0.00,,CLR,0.00,VWS V12.07,2013-03-04 19:00:00,
2013-03-04 13:01:00,30.3,11.0,30.07,SE,134,3.0,12.0,44,0.00,,CLR,0.00,VWS V12.07,2013-03-04 19:01:00,
2013-03-04 13:05:00,30.3,10.5,30.07,ENE,76,1.0,12.0,43,0.00,,CLR,0.00,VWS V12.07,2013-03-04 19:05:00,
2013-03-04 13:06:00,30.3,11.0,30.07,ENE,76,0.0,12.0,44,0.00,,CLR,0.00,VWS V12.07,2013-03-04 19:06:00,
2013-03-04 13:07:00,30.6,10.8,30.07,North,0,4.0,12.0,43,0.00,,CLR,0.00,VWS V12.07,2013-03-04 19:07:00,
2013-03-04 13:10:00,30.6,9.7,30.07,East,85,0.0,12.0,41,0.00,,CLR,0.00,VWS V12.07,2013-03-04 19:10:00,
2013-03-04 13:11:00,30.7,10.3,30.07,East,85,0.0,12.0,42,0.00,,CLR,0.00,VWS V12.07,2013-03-04 19:11:00,
2013-03-04 13:12:00,30.7,10.9,30.07,SE,126,2.0,12.0,43,0.00,,CLR,0.00,VWS V12.07,2013-03-04 19:12:00,
2013-03-04 13:16:00,30.4,10.6,30.07,SSE,153,3.0,12.0,43,0.00,,CLR,0.00,VWS V12.07,2013-03-04 19:16:00,
2013-03-04 13:17:00,30.3,10.0,30.07,South,181,3.0,12.0,42,0.00,,CLR,0.00,VWS V12.07,2013-03-04 19:17:00,
2013-03-04 13:20:00,30.3,10.5,30.07,ENE,76,1.0,5.0,43,0.00,,BKN080,0.00,VWS V12.07,2013-03-04 19:20:00,
2013-03-04 13:21:00,30.4,10.1,30.07,ESE,112,1.0,12.0,42,0.00,,CLR,0.00,VWS V12.07,2013-03-04 19:21:00,
2013-03-04 13:22:00,30.4,10.1,30.07,SE,128,4.0,12.0,42,0.00,,CLR,0.00,VWS V12.07,2013-03-04 19:22:00,
2013-03-04 13:27:00,30.4,9.0,30.07,SSE,158,1.0,12.0,40,0.00,,CLR,0.00,VWS V12.07,2013-03-04 19:27:00,
2013-03-04 13:30:00,30.6,10.8,30.07,SE,129,1.0,6.0,43,0.00,,BKN080,0.00,VWS V12.07,2013-03-04 19:30:00,
2013-03-04 13:32:00,30.7,9.8,30.06,SE,138,2.0,12.0,41,0.00,,CLR,0.00,VWS V12.07,2013-03-04 19:32:00,
2013-03-04 13:37:00,31.5,9.4,30.06,ESE,115,2.0,12.0,39,0.00,,CLR,0.00,VWS V12.07,2013-03-04 19:37:00,
2013-03-04 13:40:00,30.4,9.5,30.07,SE,139,4.0,7.0,41,0.00,,BKN080,0.00,VWS V12.07,2013-03-04 19:40:00,
2013-03-04 13:42:00,31.5,10.5,30.06,SSE,150,3.0,12.0,41,0.00,,CLR,0.00,VWS V12.07,2013-03-04 19:42:00,
2013-03-04 13:43:00,31.3,10.3,30.06,SSE,150,0.0,12.0,41,0.00,,CLR,0.00,VWS V12.07,2013-03-04 19:43:00,
2013-03-04 13:47:00,31.3,9.8,30.05,ESE,117,2.0,12.0,40,0.00,,CLR,0.00,VWS V12.07,2013-03-04 19:47:00,
2013-03-04 13:48:00,31.3,8.6,30.05,ESE,122,6.0,12.0,38,0.00,,CLR,0.00,VWS V12.07,2013-03-04 19:48:00,
2013-03-04 13:50:00,31.2,9.1,30.06,ENE,75,1.0,9.0,39,0.00,,BKN080,0.00,VWS V12.07,2013-03-04 19:50:00,
2013-03-04 13:52:00,31.5,10.5,30.05,SE,133,4.0,12.0,41,0.00,,CLR,0.00,VWS V12.07,2013-03-04 19:52:00,
2013-03-04 13:53:00,31.5,10.5,30.05,ENE,59,1.0,12.0,41,0.00,,CLR,0.00,VWS V12.07,2013-03-04 19:53:00,
2013-03-04 13:58:00,31.5,8.8,30.05,SSE,157,3.0,12.0,38,0.00,,CLR,0.00,VWS V12.07,2013-03-04 19:58:00,
2013-03-04 13:59:00,31.3,10.3,30.05,ESE,119,4.0,12.0,41,0.00,,CLR,0.00,VWS V12.07,2013-03-04 19:59:00,
2013-03-04 14:00:00,31.3,10.4,30.05,ESE,119,3.0,7.0,41,0.00,,BKN080,0.00,VWS V12.07,2013-03-04 20:00:00,
2013-03-04 14:03:00,31.3,10.3,30.05,SSE,154,3.0,12.0,41,0.00,,CLR,0.00,VWS V12.07,2013-03-04 20:03:00,
2013-03-04 14:04:00,31.3,10.3,30.05,SE,136,1.0,12.0,41,0.00,,CLR,0.00,VWS V12.07,2013-03-04 20:04:00,
2013-03-04 14:08:00,31.8,9.7,30.05,SSE,155,3.0,12.0,39,0.00,,CLR,0.00,VWS V12.07,2013-03-04 20:08:00,
2013-03-04 14:09:00,31.8,9.7,30.05,ESE,106,3.0,12.0,39,0.00,,CLR,0.00,VWS V12.07,2013-03-04 20:09:00,
2013-03-04 14:10:00,31.6,8.9,30.05,SE,139,4.0,7.0,38,0.00,,BKN080,0.00,VWS V12.07,2013-03-04 20:10:00,
2013-03-04 14:13:00,32.4,10.8,30.05,ESE,123,5.0,12.0,40,0.00,,CLR,0.00,VWS V12.07,2013-03-04 20:13:00,
2013-03-04 14:14:00,32.4,9.6,30.05,East,96,1.0,12.0,38,0.00,,CLR,0.00,VWS V12.07,2013-03-04 20:14:00,
2013-03-04 14:19:00,31.8,9.1,30.05,East,80,2.0,12.0,38,0.00,,CLR,0.00,VWS V12.07,2013-03-04 20:19:00,
2013-03-04 14:20:00,31.8,9.1,30.05,SE,142,2.0,12.0,38,0.00,,CLR,0.00,VWS V12.07,2013-03-04 20:20:00,
2013-03-04 14:24:00,31.9,9.8,30.05,NE,44,1.0,12.0,39,0.00,,CLR,0.00,VWS V12.07,2013-03-04 20:24:00,
2013-03-04 14:25:00,32.1,10.5,30.05,NE,44,0.0,12.0,40,0.00,,CLR,0.00,VWS V12.07,2013-03-04 20:25:00,
2013-03-04 14:29:00,31.8,9.7,30.05,SSE,167,1.0,12.0,39,0.00,,CLR,0.00,VWS V12.07,2013-03-04 20:29:00,
2013-03-04 14:30:00,31.6,10.1,30.05,SSE,167,0.0,12.0,40,0.00,,CLR,0.00,VWS V12.07,2013-03-04 20:30:00,
2013-03-04 14:34:00,31.5,10.0,30.05,SE,146,3.0,12.0,40,0.00,,CLR,0.00,VWS V12.07,2013-03-04 20:34:00,
2013-03-04 14:35:00,31.5,10.5,30.05,SE,143,1.0,12.0,41,0.00,,CLR,0.00,VWS V12.07,2013-03-04 20:35:00,
2013-03-04 14:39:00,31.3,9.2,30.05,SSE,148,2.0,12.0,39,0.00,,CLR,0.00,VWS V12.07,2013-03-04 20:39:00,
2013-03-04 14:40:00,31.3,8.6,30.05,SSE,148,0.0,12.0,38,0.00,,CLR,0.00,VWS V12.07,2013-03-04 20:40:00,
2013-03-04 14:44:00,31.0,10.1,30.05,SE,134,2.0,12.0,41,0.00,,CLR,0.00,VWS V12.07,2013-03-04 20:44:00,
2013-03-04 14:45:00,31.0,10.1,30.05,SE,129,1.0,12.0,41,0.00,,CLR,0.00,VWS V12.07,2013-03-04 20:45:00,
2013-03-04 14:46:00,31.0,10.1,30.05,NNE,25,4.0,12.0,41,0.00,,CLR,0.00,VWS V12.07,2013-03-04 20:46:00,
2013-03-04 14:50:00,31.2,9.7,30.05,ENE,66,0.0,12.0,40,0.00,,CLR,0.00,VWS V12.07,2013-03-04 20:50:00,
2013-03-04 14:51:00,31.2,9.7,30.05,ESE,103,2.0,12.0,40,0.00,,CLR,0.00,VWS V12.07,2013-03-04 20:51:00,
2013-03-04 14:55:00,31.3,9.2,30.05,SSE,153,2.0,12.0,39,0.00,,CLR,0.00,VWS V12.07,2013-03-04 20:55:00,
2013-03-04 14:56:00,31.3,9.2,30.05,SSE,153,0.0,12.0,39,0.00,,CLR,0.00,VWS V12.07,2013-03-04 20:56:00,
2013-03-04 15:00:00,31.5,9.4,30.00,SE,146,2.0,12.0,39,0.00,,CLR,0.00,VWS V12.07,2013-03-04 21:00:00,
2013-03-04 15:01:00,31.5,10.0,30.00,East,92,1.0,12.0,40,0.00,,CLR,0.00,VWS V12.07,2013-03-04 21:01:00,
2013-03-04 15:05:00,31.3,9.2,30.00,ESE,105,1.0,12.0,39,0.00,,CLR,0.00,VWS V12.07,2013-03-04 21:05:00,
2013-03-04 15:06:00,31.5,10.5,30.00,ESE,105,1.0,12.0,41,0.00,,CLR,0.00,VWS V12.07,2013-03-04 21:06:00,
2013-03-04 15:10:00,31.3,8.1,30.00,SSE,162,4.0,12.0,37,0.00,,CLR,0.00,VWS V12.07,2013-03-04 21:10:00,
2013-03-04 15:11:00,31.3,9.2,30.00,SSE,157,1.0,12.0,39,0.00,,CLR,0.00,VWS V12.07,2013-03-04 21:11:00,
2013-03-04 15:12:00,31.3,9.8,30.00,SSE,164,2.0,12.0,40,0.00,,CLR,0.00,VWS V12.07,2013-03-04 21:12:00,
2013-03-04 15:15:00,31.2,9.1,30.01,SSE,165,2.0,12.0,39,0.00,,CLR,0.00,VWS V12.07,2013-03-04 21:15:00,
2013-03-04 15:17:00,31.0,8.4,30.01,SSE,167,4.0,12.0,38,0.00,,CLR,0.00,VWS V12.07,2013-03-04 21:17:00,
2013-03-04 15:20:00,31.0,9.5,30.01,SE,138,0.0,12.0,40,0.00,,CLR,0.00,VWS V12.07,2013-03-04 21:20:00,
2013-03-04 15:21:00,31.0,9.5,30.01,SE,138,2.0,12.0,40,0.00,,CLR,0.00,VWS V12.07,2013-03-04 21:21:00,
2013-03-04 15:22:00,31.0,9.0,30.01,SSE,160,0.0,12.0,39,0.00,,CLR,0.00,VWS V12.07,2013-03-04 21:22:00,
2013-03-04 15:26:00,31.2,8.0,30.01,SE,136,1.0,12.0,37,0.00,,CLR,0.00,VWS V12.07,2013-03-04 21:26:00,
2013-03-04 15:27:00,31.2,8.6,30.01,SSE,150,0.0,12.0,38,0.00,,CLR,0.00,VWS V12.07,2013-03-04 21:27:00,
2013-03-04 15:28:00,31.2,8.0,30.01,SSE,167,3.0,12.0,37,0.00,,CLR,0.00,VWS V12.07,2013-03-04 21:28:00,
2013-03-04 15:30:00,31.2,9.1,30.01,South,174,3.0,7.0,39,0.00,,BKN080,0.00,VWS V12.07,2013-03-04 21:30:00,
2013-03-04 15:31:00,31.2,8.6,30.01,SSE,159,0.0,12.0,38,0.00,,CLR,0.00,VWS V12.07,2013-03-04 21:31:00,
2013-03-04 15:33:00,31.2,8.6,30.01,SSE,159,2.0,12.0,38,0.00,,CLR,0.00,VWS V12.07,2013-03-04 21:33:00,
2013-03-04 15:36:00,31.2,7.4,30.01,SE,133,2.0,12.0,36,0.00,,CLR,0.00,VWS V12.07,2013-03-04 21:36:00,
2013-03-04 15:38:00,31.2,7.4,30.01,ESE,120,0.0,12.0,36,0.00,,CLR,0.00,VWS V12.07,2013-03-04 21:38:00,
2013-03-04 15:39:00,31.2,8.0,30.01,ESE,120,2.0,12.0,37,0.00,,CLR,0.00,VWS V12.07,2013-03-04 21:39:00,
2013-03-04 15:40:00,31.2,8.6,30.01,SE,136,2.0,5.0,38,0.00,,BKN080,0.00,VWS V12.07,2013-03-04 21:40:00,
2013-03-04 15:41:00,31.2,6.8,30.01,SE,141,4.0,12.0,35,0.00,,CLR,0.00,VWS V12.07,2013-03-04 21:41:00,
2013-03-04 15:42:00,31.2,6.8,30.01,ESE,122,1.0,12.0,35,0.00,,CLR,0.00,VWS V12.07,2013-03-04 21:42:00,
2013-03-04 15:43:00,31.2,7.4,30.01,SE,135,2.0,12.0,36,0.00,,CLR,0.00,VWS V12.07,2013-03-04 21:43:00,
2013-03-04 15:44:00,31.2,7.4,30.01,SE,135,1.0,12.0,36,0.00,,CLR,0.00,VWS V12.07,2013-03-04 21:44:00,
2013-03-04 15:47:00,31.2,8.6,30.01,SSE,162,3.0,12.0,38,0.00,,CLR,0.00,VWS V12.07,2013-03-04 21:47:00,
2013-03-04 15:48:00,31.2,8.0,30.01,SE,145,4.0,12.0,37,0.00,,CLR,0.00,VWS V12.07,2013-03-04 21:48:00,
2013-03-04 15:49:00,31.2,7.4,30.01,South,174,3.0,12.0,36,0.00,,CLR,0.00,VWS V12.07,2013-03-04 21:49:00,
2013-03-04 15:50:00,31.2,7.4,30.01,ESE,118,3.0,5.0,36,0.00,,BKN080,0.00,VWS V12.07,2013-03-04 21:50:00,
2013-03-04 15:52:00,31.0,9.0,30.01,SSE,150,1.0,12.0,39,0.00,,CLR,0.00,VWS V12.07,2013-03-04 21:52:00,
2013-03-04 15:53:00,31.0,9.0,30.01,SSE,150,1.0,12.0,39,0.00,,CLR,0.00,VWS V12.07,2013-03-04 21:53:00,
2013-03-04 15:54:00,31.0,9.0,30.01,SSE,152,2.0,12.0,39,0.00,,CLR,0.00,VWS V12.07,2013-03-04 21:54:00,
2013-03-04 15:57:00,30.9,8.9,30.01,SE,125,1.0,12.0,39,0.00,,CLR,0.00,VWS V12.07,2013-03-04 21:57:00,
2013-03-04 15:58:00,30.9,8.3,30.01,ESE,120,2.0,12.0,38,0.00,,CLR,0.00,VWS V12.07,2013-03-04 21:58:00,
2013-03-04 15:59:00,30.9,8.9,30.01,SE,124,2.0,12.0,39,0.00,,CLR,0.00,VWS V12.07,2013-03-04 21:59:00,
2013-03-04 16:00:00,31.2,7.4,30.01,SSE,155,0.0,5.0,36,0.00,,BKN080,0.00,VWS V12.07,2013-03-04 22:00:00,
2013-03-04 16:02:00,30.9,8.3,30.01,SE,135,0.0,12.0,38,0.00,,CLR,0.00,VWS V12.07,2013-03-04 22:02:00,
2013-03-04 16:03:00,30.9,8.3,30.01,SE,127,3.0,12.0,38,0.00,,CLR,0.00,VWS V12.07,2013-03-04 22:03:00,
2013-03-04 16:05:00,30.9,7.7,30.01,SE,131,3.0,12.0,37,0.00,,CLR,0.00,VWS V12.07,2013-03-04 22:05:00,
2013-03-04 16:07:00,30.9,7.1,30.01,SE,131,1.0,12.0,36,0.00,,CLR,0.00,VWS V12.07,2013-03-04 22:07:00,
2013-03-04 16:08:00,30.9,7.7,30.01,SE,131,1.0,12.0,37,0.00,,CLR,0.00,VWS V12.07,2013-03-04 22:08:00,
2013-03-04 16:10:00,30.9,8.3,30.01,SSE,151,2.0,12.0,38,0.00,,CLR,0.00,VWS V12.07,2013-03-04 22:10:00,
2013-03-04 16:12:00,30.9,8.3,30.01,SE,146,0.0,12.0,38,0.00,,CLR,0.00,VWS V12.07,2013-03-04 22:12:00,
2013-03-04 16:13:00,30.9,8.3,30.01,SE,140,2.0,12.0,38,0.00,,CLR,0.00,VWS V12.07,2013-03-04 22:13:00,
2013-03-04 16:14:00,30.9,7.7,30.01,SE,140,2.0,12.0,37,0.00,,CLR,0.00,VWS V12.07,2013-03-04 22:14:00,
2013-03-04 16:16:00,30.7,8.1,30.01,ENE,78,0.0,0.0,38,0.00,,CLR,0.00,VWS V12.07,2013-03-04 22:16:00,
2013-03-04 16:18:00,30.7,8.1,30.01,SSE,162,2.0,5.0,38,0.00,,CLR,0.00,VWS V12.07,2013-03-04 22:18:00,
2013-03-04 16:19:00,30.7,6.9,30.01,ESE,110,1.0,5.0,36,0.00,,CLR,0.00,VWS V12.07,2013-03-04 22:19:00,
2013-03-04 16:21:00,30.7,6.9,30.01,SE,143,1.0,5.0,36,0.00,,BKN080,0.00,VWS V12.07,2013-03-04 22:21:00,
2013-03-04 16:23:00,30.7,8.1,30.01,ESE,120,2.0,0.0,38,0.00,,BKN080,0.00,VWS V12.07,2013-03-04 22:23:00,
2013-03-04 16:24:00,30.7,7.5,30.01,SE,129,3.0,5.0,37,0.00,,BKN080,0.00,VWS V12.07,2013-03-04 22:24:00,
2013-03-04 16:26:00,30.7,7.5,30.01,SSE,159,2.0,5.0,37,0.00,,BKN080,0.00,VWS V12.07,2013-03-04 22:26:00,
2013-03-04 16:28:00,30.7,8.1,30.01,SSE,167,2.0,5.0,38,0.00,,BKN080,0.00,VWS V12.07,2013-03-04 22:28:00,
2013-03-04 16:29:00,30.6,8.0,30.01,SSE,168,1.0,5.0,38,0.00,,BKN080,0.00,VWS V12.07,2013-03-04 22:29:00,
2013-03-04 16:32:00,30.6,8.0,30.01,East,86,0.0,5.0,38,0.00,,BKN080,0.00,VWS V12.07,2013-03-04 22:32:00,
2013-03-04 16:34:00,30.7,8.1,30.01,ESE,117,0.0,4.0,38,0.00,,OVC080,0.00,VWS V12.07,2013-03-04 22:34:00,
2013-03-04 16:37:00,30.7,8.1,30.01,SE,136,3.0,4.0,38,0.00,,OVC080,0.00,VWS V12.07,2013-03-04 22:37:00,
2013-03-04 16:39:00,30.7,8.1,30.01,ESE,121,1.0,4.0,38,0.00,,OVC080,0.00,VWS V12.07,2013-03-04 22:39:00,
2013-03-04 16:40:00,30.7,8.1,30.01,ESE,121,0.0,4.0,38,0.00,,OVC080,0.00,VWS V12.07,2013-03-04 22:40:00,
2013-03-04 16:42:00,30.7,9.2,30.01,SE,131,1.0,4.0,40,0.00,,OVC080,0.00,VWS V12.07,2013-03-04 22:42:00,
2013-03-04 16:45:00,30.6,8.0,30.01,SSE,153,5.0,5.0,38,0.00,,OVC080,0.00,VWS V12.07,2013-03-04 22:45:00,
2013-03-04 16:47:00,30.6,8.0,30.01,SE,141,4.0,5.0,38,0.00,,OVC080,0.00,VWS V12.07,2013-03-04 22:47:00,
2013-03-04 16:50:00,30.4,7.3,30.01,SSE,148,0.0,5.0,37,0.00,,OVC080,0.00,VWS V12.07,2013-03-04 22:50:00,
2013-03-04 16:52:00,30.4,8.4,30.01,East,101,3.0,5.0,39,0.00,,OVC080,0.00,VWS V12.07,2013-03-04 22:52:00,
2013-03-04 16:55:00,30.4,7.8,30.01,ESE,105,0.0,7.0,38,0.00,,OVC080,0.00,VWS V12.07,2013-03-04 22:55:00,
2013-03-04 16:58:00,30.3,7.2,30.01,SE,131,2.0,6.0,37,0.00,,OVC080,0.00,VWS V12.07,2013-03-04 22:58:00,
2013-03-04 17:00:00,30.3,7.8,30.02,ENE,74,3.0,6.0,38,0.00,,OVC080,0.00,VWS V12.07,2013-03-04 23:00:00,
2013-03-04 17:03:00,30.3,7.8,30.02,ESE,113,0.0,6.0,38,0.00,,OVC080,0.00,VWS V12.07,2013-03-04 23:03:00,
2013-03-04 17:05:00,30.1,8.7,30.02,ESE,120,0.0,6.0,40,0.00,,OVC080,0.00,VWS V12.07,2013-03-04 23:05:00,
2013-03-04 17:06:00,30.1,8.1,30.02,ESE,120,0.0,6.0,39,0.00,,OVC080,0.00,VWS V12.07,2013-03-04 23:06:00,
2013-03-04 17:08:00,30.1,8.1,30.02,ESE,106,2.0,6.0,39,0.00,,OVC080,0.00,VWS V12.07,2013-03-04 23:08:00,
2013-03-04 17:10:00,30.0,8.6,30.02,SSE,149,0.0,3.0,40,0.00,,OVC080,0.00,VWS V12.07,2013-03-04 23:10:00,
2013-03-04 17:11:00,30.0,8.6,30.02,SSE,149,0.0,3.0,40,0.00,,OVC080,0.00,VWS V12.07,2013-03-04 23:11:00,
2013-03-04 17:13:00,30.0,9.2,30.02,SE,129,1.0,3.0,41,0.00,,OVC080,0.00,VWS V12.07,2013-03-04 23:13:00,
2013-03-04 17:16:00,29.8,8.4,30.02,South,172,4.0,4.0,40,0.00,,OVC080,0.00,VWS V12.07,2013-03-04 23:16:00,
2013-03-04 17:17:00,29.8,8.4,30.02,SSE,153,2.0,5.0,40,0.00,,OVC080,0.00,VWS V12.07,2013-03-04 23:17:00,
2013-03-04 17:19:00,29.8,8.4,30.02,SE,136,3.0,5.0,40,0.00,,OVC080,0.00,VWS V12.07,2013-03-04 23:19:00,
2013-03-04 17:21:00,29.7,8.4,30.02,East,97,0.0,5.0,40,0.00,,OVC080,0.00,VWS V12.07,2013-03-04 23:21:00,
2013-03-04 17:22:00,29.7,8.9,30.02,East,97,1.0,5.0,41,0.00,,OVC080,0.00,VWS V12.07,2013-03-04 23:22:00,
2013-03-04 17:24:00,29.7,9.4,30.02,East,97,1.0,5.0,42,0.00,,OVC080,0.00,VWS V12.07,2013-03-04 23:24:00,
2013-03-04 17:26:00,29.5,9.2,30.02,East,98,0.0,5.0,42,0.00,,OVC080,0.00,VWS V12.07,2013-03-04 23:26:00,
2013-03-04 17:27:00,29.5,9.2,30.02,East,98,0.0,5.0,42,0.00,,OVC080,0.00,VWS V12.07,2013-03-04 23:27:00,
2013-03-04 17:29:00,29.4,9.2,30.02,East,94,0.0,3.0,42,0.00,,OVC080,0.00,VWS V12.07,2013-03-04 23:29:00,
2013-03-04 17:30:00,29.4,9.7,30.03,East,94,0.0,3.0,43,0.00,,OVC080,0.00,VWS V12.07,2013-03-04 23:30:00,
2013-03-04 17:31:00,29.4,9.2,30.03,East,86,1.0,4.0,42,0.00,,OVC080,0.00,VWS V12.07,2013-03-04 23:31:00,
2013-03-04 17:32:00,29.4,8.6,30.03,SE,131,1.0,4.0,41,0.00,,OVC080,0.00,VWS V12.07,2013-03-04 23:32:00,
2013-03-04 17:34:00,29.3,9.1,30.03,NE,44,4.0,4.0,42,0.00,,OVC080,0.00,VWS V12.07,2013-03-04 23:34:00,
2013-03-04 17:35:00,29.3,8.5,30.03,East,96,0.0,4.0,41,0.00,,OVC080,0.00,VWS V12.07,2013-03-04 23:35:00,
2013-03-04 17:36:00,29.3,8.5,30.03,East,96,0.0,4.0,41,0.00,,OVC080,0.00,VWS V12.07,2013-03-04 23:36:00,
2013-03-04 17:37:00,29.3,9.1,30.03,East,98,0.0,4.0,42,0.00,,OVC080,0.00,VWS V12.07,2013-03-04 23:37:00,
2013-03-04 17:40:00,29.3,9.1,30.03,East,98,1.0,2.0,42,0.00,,OVC080,0.00,VWS V12.07,2013-03-04 23:40:00,
2013-03-04 17:41:00,29.1,8.4,30.03,ESE,121,1.0,4.0,41,0.00,,OVC080,0.00,VWS V12.07,2013-03-04 23:41:00,
2013-03-04 17:42:00,29.1,8.4,30.03,ESE,108,0.0,4.0,41,0.00,,OVC080,0.00,VWS V12.07,2013-03-04 23:42:00,
2013-03-04 17:45:00,29.1,8.4,30.03,ESE,103,0.0,4.0,41,0.00,,OVC080,0.00,VWS V12.07,2013-03-04 23:45:00,
2013-03-04 17:46:00,29.1,8.9,30.03,East,93,2.0,4.0,42,0.00,,OVC080,0.00,VWS V12.07,2013-03-04 23:46:00,
2013-03-04 17:47:00,29.1,8.4,30.03,ESE,103,2.0,4.0,41,0.00,,OVC080,0.00,VWS V12.07,2013-03-04 23:47:00,
2013-03-04 17:50:00,29.1,8.4,30.03,East,83,0.0,4.0,41,0.00,,OVC080,0.00,VWS V12.07,2013-03-04 23:50:00,
2013-03-04 17:51:00,29.1,8.4,30.03,NNE,23,0.0,4.0,41,0.00,,OVC080,0.00,VWS V12.07,2013-03-04 23:51:00,
2013-03-04 17:53:00,29.1,8.9,30.03,NNE,23,1.0,4.0,42,0.00,,OVC080,0.00,VWS V12.07,2013-03-04 23:53:00,
2013-03-04 17:55:00,29.0,8.8,30.03,ESE,115,2.0,0.0,42,0.00,,OVC080,0.00,VWS V12.07,2013-03-04 23:55:00,
2013-03-04 17:56:00,29.0,8.3,30.03,ESE,115,1.0,4.0,41,0.00,,OVC080,0.00,VWS V12.07,2013-03-04 23:56:00,
2013-03-04 17:59:00,29.0,9.3,30.03,ESE,115,0.0,2.0,43,0.00,,OVC080,0.00,VWS V12.07,2013-03-04 23:59:00,
2013-03-04 18:00:00,29.0,8.8,30.03,ESE,115,0.0,2.0,42,0.00,,OVC080,0.00,VWS V12.07,2013-03-05 00:00:00,
2013-03-04 18:01:00,29.0,8.8,30.03,ESE,115,0.0,2.0,42,0.00,,OVC080,0.00,VWS V12.07,2013-03-05 00:01:00,
2013-03-04 18:04:00,28.8,8.1,30.03,NNE,31,0.0,4.0,41,0.00,,OVC080,0.00,VWS V12.07,2013-03-05 00:04:00,
2013-03-04 18:05:00,28.8,8.6,30.03,ESE,108,0.0,4.0,42,0.00,,OVC080,0.00,VWS V12.07,2013-03-05 00:05:00,
2013-03-04 18:06:00,28.8,8.6,30.03,ESE,108,0.0,4.0,42,0.00,,OVC080,0.00,VWS V12.07,2013-03-05 00:06:00,
2013-03-04 18:09:00,28.7,9.1,30.03,ESE,108,0.0,1.0,43,0.00,,OVC080,0.00,VWS V12.07,2013-03-05 00:09:00,
2013-03-04 18:10:00,28.7,9.1,30.03,ESE,108,0.0,1.0,43,0.00,,OVC080,0.00,VWS V12.07,2013-03-05 00:10:00,
2013-03-04 18:11:00,28.7,9.1,30.03,ESE,108,0.0,1.0,43,0.00,,OVC080,0.00,VWS V12.07,2013-03-05 00:11:00,
2013-03-04 18:12:00,28.7,9.1,30.03,ESE,108,0.0,1.0,43,0.00,,OVC080,0.00,VWS V12.07,2013-03-05 00:12:00,
2013-03-04 18:14:00,28.5,8.9,30.04,NE,43,1.0,2.0,43,0.00,,OVC080,0.00,VWS V12.07,2013-03-05 00:14:00,
2013-03-04 18:16:00,28.5,8.3,30.04,NE,43,0.0,2.0,42,0.00,,OVC080,0.00,VWS V12.07,2013-03-05 00:16:00,
2013-03-04 18:17:00,28.5,8.3,30.04,ENE,65,1.0,3.0,42,0.00,,OVC085,0.00,VWS V12.07,2013-03-05 00:17:00,
2013-03-04 18:20:00,28.5,7.8,30.04,ESE,115,1.0,3.0,41,0.00,,OVC085,0.00,VWS V12.07,2013-03-05 00:20:00,
2013-03-04 18:21:00,28.5,8.3,30.04,ESE,115,0.0,3.0,42,0.00,,OVC085,0.00,VWS V12.07,2013-03-05 00:21:00,
2013-03-04 18:22:00,28.5,8.9,30.04,ESE,115,0.0,3.0,43,0.00,,OVC085,0.00,VWS V12.07,2013-03-05 00:22:00,
2013-03-04 18:25:00,28.5,8.3,30.04,NE,56,2.0,4.0,42,0.00,,OVC085,0.00,VWS V12.07,2013-03-05 00:25:00,
2013-03-04 18:26:00,28.5,7.8,30.04,ENE,60,2.0,4.0,41,0.00,,OVC085,0.00,VWS V12.07,2013-03-05 00:26:00,
2013-03-04 18:27:00,28.5,7.8,30.04,East,101,3.0,4.0,41,0.00,,OVC085,0.00,VWS V12.07,2013-03-05 00:27:00,
2013-03-04 18:30:00,28.5,7.8,30.04,ENE,78,1.0,4.0,41,0.00,,OVC085,0.00,VWS V12.07,2013-03-05 00:30:00,
2013-03-04 18:31:00,28.5,7.8,30.04,ENE,78,1.0,4.0,41,0.00,,OVC085,0.00,VWS V12.07,2013-03-05 00:31:00,
2013-03-04 18:32:00,28.5,7.8,30.04,NE,41,2.0,4.0,41,0.00,,OVC085,0.00,VWS V12.07,2013-03-05 00:32:00,
2013-03-04 18:35:00,28.4,8.2,30.04,ENE,71,2.0,4.0,42,0.00,,OVC085,0.00,VWS V12.07,2013-03-05 00:35:00,
2013-03-04 18:36:00,28.4,7.7,30.04,ENE,63,0.0,4.0,41,0.00,,OVC085,0.00,VWS V12.07,2013-03-05 00:36:00,
2013-03-04 18:37:00,28.5,8.3,30.04,East,91,2.0,4.0,42,0.00,,OVC085,0.00,VWS V12.07,2013-03-05 00:37:00,
2013-03-04 18:41:00,28.4,7.7,30.04,ESE,110,0.0,6.0,41,0.00,,OVC085,0.00,VWS V12.07,2013-03-05 00:41:00,
2013-03-04 18:42:00,28.4,8.2,30.04,ESE,110,0.0,6.0,42,0.00,,OVC085,0.00,VWS V12.07,2013-03-05 00:42:00,
2013-03-04 18:43:00,28.2,8.1,30.04,ESE,110,1.0,6.0,42,0.00,,OVC085,0.00,VWS V12.07,2013-03-05 00:43:00,
2013-03-04 18:46:00,28.2,8.1,30.05,East,79,0.0,6.0,42,0.00,,OVC085,0.00,VWS V12.07,2013-03-05 00:46:00,
2013-03-04 18:47:00,28.2,8.1,30.05,ENE,58,1.0,6.0,42,0.00,,OVC085,0.00,VWS V12.07,2013-03-05 00:47:00,
2013-03-04 18:48:00,28.1,8.0,30.05,ESE,104,1.0,3.0,42,0.00,,OVC085,0.00,VWS V12.07,2013-03-05 00:48:00,
2013-03-04 18:51:00,28.1,8.0,30.05,East,96,0.0,3.0,42,0.00,,OVC085,0.00,VWS V12.07,2013-03-05 00:51:00,
2013-03-04 18:52:00,28.1,8.5,30.05,East,96,0.0,3.0,43,0.00,,OVC085,0.00,VWS V12.07,2013-03-05 00:52:00,
2013-03-04 18:53:00,28.1,9.0,30.05,East,96,0.0,3.0,44,0.00,,OVC085,0.00,VWS V12.07,2013-03-05 00:53:00,
2013-03-04 18:56:00,28.1,8.5,30.05,East,90,1.0,3.0,43,0.00,,OVC085,0.00,VWS V12.07,2013-03-05 00:56:00,
2013-03-04 18:57:00,28.1,8.0,30.05,East,90,0.0,3.0,42,0.00,,OVC085,0.00,VWS V12.07,2013-03-05 00:57:00,
2013-03-04 18:58:00,27.9,8.3,30.05,East,90,0.0,2.0,43,0.00,,OVC085,0.00,VWS V12.07,2013-03-05 00:58:00,
2013-03-04 19:02:00,27.9,8.8,30.09,NE,41,0.0,4.0,44,0.00,,OVC085,0.00,VWS V12.07,2013-03-05 01:02:00,
2013-03-04 19:03:00,27.9,8.3,30.09,ENE,71,2.0,4.0,43,0.00,,OVC085,0.00,VWS V12.07,2013-03-05 01:03:00,
2013-03-04 19:07:00,27.9,8.8,30.09,East,80,0.0,4.0,44,0.00,,OVC085,0.00,VWS V12.07,2013-03-05 01:07:00,
2013-03-04 19:08:00,27.9,8.8,30.09,East,80,0.0,4.0,44,0.00,,OVC085,0.00,VWS V12.07,2013-03-05 01:08:00,
2013-03-04 19:12:00,27.9,8.8,30.09,East,96,0.0,4.0,44,0.00,,OVC085,0.00,VWS V12.07,2013-03-05 01:12:00,
2013-03-04 19:13:00,27.9,8.8,30.09,North,358,3.0,4.0,44,0.00,,OVC085,0.00,VWS V12.07,2013-03-05 01:13:00,
2013-03-04 19:17:00,27.9,9.3,30.10,NE,36,1.0,4.0,45,0.00,,OVC085,0.00,VWS V12.07,2013-03-05 01:17:00,
2013-03-04 19:18:00,27.9,9.3,30.10,NE,36,1.0,4.0,45,0.00,,OVC085,0.00,VWS V12.07,2013-03-05 01:18:00,
2013-03-04 19:19:00,27.9,9.3,30.10,NE,36,0.0,4.0,45,0.00,,OVC085,0.00,VWS V12.07,2013-03-05 01:19:00,
2013-03-04 19:22:00,27.8,9.2,30.10,ENE,75,1.0,4.0,45,0.00,,OVC085,0.00,VWS V12.07,2013-03-05 01:22:00,
2013-03-04 19:23:00,27.8,9.2,30.10,NE,49,2.0,4.0,45,0.00,,OVC085,0.00,VWS V12.07,2013-03-05 01:23:00,
2013-03-04 19:24:00,27.8,9.2,30.10,ENE,70,1.0,2.0,45,0.00,,OVC085,0.00,VWS V12.07,2013-03-05 01:24:00,
2013-03-04 19:27:00,27.8,9.7,30.10,East,101,0.0,2.0,46,0.00,,OVC085,0.00,VWS V12.07,2013-03-05 01:27:00,
2013-03-04 19:28:00,27.8,9.7,30.10,East,101,0.0,2.0,46,0.00,,OVC085,0.00,VWS V12.07,2013-03-05 01:28:00,
2013-03-04 19:29:00,27.8,9.2,30.10,East,101,1.0,2.0,45,0.00,,OVC085,0.00,VWS V12.07,2013-03-05 01:29:00,
2013-03-04 19:33:00,27.8,9.7,30.10,East,84,1.0,2.0,46,0.00,,OVC085,0.00,VWS V12.07,2013-03-05 01:33:00,
2013-03-04 19:34:00,27.8,9.7,30.10,East,83,1.0,3.0,46,0.00,,OVC085,0.00,VWS V12.07,2013-03-05 01:34:00,
2013-03-04 19:38:00,27.8,9.7,30.10,ENE,77,0.0,5.0,46,0.00,,BKN110,0.00,VWS V12.07,2013-03-05 01:38:00,
2013-03-04 19:39:00,27.8,10.2,30.10,ENE,77,0.0,5.0,47,0.00,,BKN110,0.00,VWS V12.07,2013-03-05 01:39:00,
2013-03-04 19:40:00,27.8,10.2,30.10,ENE,77,0.0,5.0,47,0.00,,BKN110,0.00,VWS V12.07,2013-03-05 01:40:00,
2013-03-04 19:43:00,27.8,10.7,30.10,East,90,2.0,5.0,48,0.00,,BKN110,0.00,VWS V12.07,2013-03-05 01:43:00,
2013-03-04 19:44:00,27.8,10.2,30.10,East,90,0.0,5.0,47,0.00,,BKN110,0.00,VWS V12.07,2013-03-05 01:44:00,
2013-03-04 19:45:00,27.8,10.2,30.10,East,90,0.0,0.0,47,0.00,,BKN110,0.00,VWS V12.07,2013-03-05 01:45:00,
2013-03-04 19:48:00,27.6,10.0,30.10,East,90,0.0,5.0,47,0.00,,OVC110,0.00,VWS V12.07,2013-03-05 01:48:00,
2013-03-04 19:49:00,27.6,10.5,30.10,East,90,0.0,1.0,48,0.00,,OVC110,0.00,VWS V12.07,2013-03-05 01:49:00,
2013-03-04 19:50:00,27.6,10.9,30.10,East,90,0.0,1.0,49,0.00,,OVC110,0.00,VWS V12.07,2013-03-05 01:50:00,
2013-03-04 19:53:00,27.6,10.0,30.10,East,90,0.0,2.0,47,0.00,,OVC110,0.00,VWS V12.07,2013-03-05 01:53:00,
2013-03-04 19:54:00,27.6,10.0,30.10,East,97,1.0,3.0,47,0.00,,OVC110,0.00,VWS V12.07,2013-03-05 01:54:00,
2013-03-04 19:55:00,27.6,10.5,30.10,East,98,1.0,3.0,48,0.00,,OVC110,0.00,VWS V12.07,2013-03-05 01:55:00,
2013-03-04 19:58:00,27.6,10.0,30.10,East,98,0.0,2.0,47,0.00,,OVC110,0.00,VWS V12.07,2013-03-05 01:58:00,
2013-03-04 19:59:00,27.6,10.0,30.10,East,98,0.0,0.0,47,0.00,,OVC110,0.00,VWS V12.07,2013-03-05 01:59:00,
2013-03-04 20:00:00,27.5,10.4,30.08,East,98,0.0,2.0,48,0.00,,OVC110,0.00,VWS V12.07,2013-03-05 02:00:00,
2013-03-04 20:03:00,27.5,10.4,30.08,East,98,1.0,2.0,48,0.00,,OVC110,0.00,VWS V12.07,2013-03-05 02:03:00,
2013-03-04 20:04:00,27.5,10.4,30.08,East,98,0.0,2.0,48,0.00,,OVC110,0.00,VWS V12.07,2013-03-05 02:04:00,
2013-03-04 20:05:00,27.5,10.4,30.08,East,98,0.0,2.0,48,0.00,,OVC110,0.00,VWS V12.07,2013-03-05 02:05:00,
2013-03-04 20:08:00,27.5,10.4,30.08,East,98,0.0,0.0,48,0.00,,OVC110,0.00,VWS V12.07,2013-03-05 02:08:00,
2013-03-04 20:10:00,27.5,10.4,30.08,East,98,0.0,1.0,48,0.00,,OVC110,0.00,VWS V12.07,2013-03-05 02:10:00,
2013-03-04 20:11:00,27.3,10.2,30.08,East,98,0.0,1.0,48,0.00,,OVC110,0.00,VWS V12.07,2013-03-05 02:11:00,
2013-03-04 20:13:00,27.3,10.7,30.08,East,98,1.0,1.0,49,0.00,,OVC110,0.00,VWS V12.07,2013-03-05 02:13:00,
2013-03-04 20:15:00,27.3,10.2,30.09,East,98,0.0,2.0,48,0.00,,OVC110,0.00,VWS V12.07,2013-03-05 02:15:00,
2013-03-04 20:16:00,27.3,10.2,30.09,East,98,0.0,2.0,48,0.00,,OVC110,0.00,VWS V12.07,2013-03-05 02:16:00,
2013-03-04 20:19:00,27.2,10.1,30.09,East,98,0.0,2.0,48,0.00,,OVC110,0.00,VWS V12.07,2013-03-05 02:19:00,
2013-03-04 20:20:00,27.2,10.1,30.09,East,98,0.0,1.0,48,0.00,,OVC110,0.00,VWS V12.07,2013-03-05 02:20:00,
2013-03-04 20:21:00,27.2,10.6,30.09,East,98,0.0,1.0,49,0.00,,OVC110,0.00,VWS V12.07,2013-03-05 02:21:00,
2013-03-04 20:24:00,27.2,10.1,30.09,East,98,0.0,1.0,48,0.00,,OVC110,0.00,VWS V12.07,2013-03-05 02:24:00,
2013-03-04 20:25:00,27.2,10.6,30.09,East,98,0.0,1.0,49,0.00,,OVC110,0.00,VWS V12.07,2013-03-05 02:25:00,
2013-03-04 20:26:00,27.0,10.4,30.09,East,98,0.0,1.0,49,0.00,,OVC110,0.00,VWS V12.07,2013-03-05 02:26:00,
2013-03-04 20:29:00,27.0,10.4,30.09,East,98,0.0,1.0,49,0.00,,OVC110,0.00,VWS V12.07,2013-03-05 02:29:00,
2013-03-04 20:30:00,27.0,10.4,30.09,East,98,0.0,0.0,49,0.00,,OVC110,0.00,VWS V12.07,2013-03-05 02:30:00,
2013-03-04 20:32:00,26.9,10.3,30.09,East,98,0.0,0.0,49,0.00,,OVC110,0.00,VWS V12.07,2013-03-05 02:32:00,
2013-03-04 20:34:00,26.9,10.3,30.09,East,98,0.0,0.0,49,0.00,,OVC080,0.00,VWS V12.07,2013-03-05 02:34:00,
2013-03-04 20:35:00,26.7,10.1,30.09,East,98,0.0,0.0,49,0.00,,OVC080,0.00,VWS V12.07,2013-03-05 02:35:00,
2013-03-04 20:36:00,26.7,10.1,30.09,East,98,0.0,0.0,49,0.00,,OVC080,0.00,VWS V12.07,2013-03-05 02:36:00,
2013-03-04 20:37:00,26.7,10.1,30.09,East,98,0.0,0.0,49,0.00,,OVC080,0.00,VWS V12.07,2013-03-05 02:37:00,
2013-03-04 20:39:00,26.6,10.0,30.09,East,98,0.0,0.0,49,0.00,,OVC080,0.00,VWS V12.07,2013-03-05 02:39:00,
2013-03-04 20:40:00,26.6,10.5,30.09,East,98,0.0,0.0,50,0.00,,OVC080,0.00,VWS V12.07,2013-03-05 02:40:00,
2013-03-04 20:41:00,26.4,10.3,30.09,East,98,0.0,0.0,50,0.00,,OVC080,0.00,VWS V12.07,2013-03-05 02:41:00,
2013-03-04 20:42:00,26.4,10.3,30.09,East,98,0.0,0.0,50,0.00,,OVC080,0.00,VWS V12.07,2013-03-05 02:42:00,
2013-03-04 20:44:00,26.3,10.2,30.09,East,98,0.0,0.0,50,0.00,,OVC080,0.00,VWS V12.07,2013-03-05 02:44:00,
2013-03-04 20:46:00,26.3,10.2,30.09,East,98,0.0,2.0,50,0.00,,OVC080,0.00,VWS V12.07,2013-03-05 02:46:00,
2013-03-04 20:47:00,26.3,10.6,30.09,East,98,0.0,2.0,51,0.00,,OVC080,0.00,VWS V12.07,2013-03-05 02:47:00,
2013-03-04 20:49:00,26.1,10.5,30.09,East,98,0.0,2.0,51,0.00,,OVC080,0.00,VWS V12.07,2013-03-05 02:49:00,
2013-03-04 20:51:00,26.1,10.5,30.09,East,98,0.0,2.0,51,0.00,,OVC080,0.00,VWS V12.07,2013-03-05 02:51:00,
2013-03-04 20:52:00,26.1,10.5,30.09,East,98,0.0,2.0,51,0.00,,OVC080,0.00,VWS V12.07,2013-03-05 02:52:00,
2013-03-04 20:55:00,26.0,10.4,30.09,East,98,1.0,2.0,51,0.00,,OVC080,0.00,VWS V12.07,2013-03-05 02:55:00,
2013-03-04 20:56:00,26.0,10.8,30.09,East,98,0.0,2.0,52,0.00,,OVC080,0.00,VWS V12.07,2013-03-05 02:56:00,
2013-03-04 20:57:00,26.0,10.8,30.09,East,98,0.0,2.0,52,0.00,,OVC080,0.00,VWS V12.07,2013-03-05 02:57:00,
2013-03-04 21:00:00,26.1,10.5,30.08,East,98,0.0,1.0,51,0.00,,OVC080,0.00,VWS V12.07,2013-03-05 03:00:00,
2013-03-04 21:01:00,26.1,10.5,30.08,East,98,0.0,1.0,51,0.00,,OVC080,0.00,VWS V12.07,2013-03-05 03:01:00,
2013-03-04 21:03:00,26.1,10.9,30.08,East,98,0.0,1.0,52,0.00,,OVC080,0.00,VWS V12.07,2013-03-05 03:03:00,
2013-03-04 21:05:00,26.1,10.9,30.08,East,90,0.0,2.0,52,0.00,,OVC080,0.00,VWS V12.07,2013-03-05 03:05:00,
2013-03-04 21:06:00,26.3,10.6,30.08,East,90,0.0,2.0,51,0.00,,OVC080,0.00,VWS V12.07,2013-03-05 03:06:00,
2013-03-04 21:08:00,26.3,11.1,30.08,East,90,0.0,0.0,52,0.00,,OVC080,0.00,VWS V12.07,2013-03-05 03:08:00,
2013-03-04 21:10:00,26.3,10.6,30.08,East,90,0.0,1.0,51,0.00,,OVC080,0.00,VWS V12.07,2013-03-05 03:10:00,
2013-03-04 21:12:00,26.3,11.1,30.08,East,90,0.0,1.0,52,0.00,,OVC080,0.00,VWS V12.07,2013-03-05 03:12:00,
2013-03-04 21:13:00,26.3,10.6,30.08,East,89,0.0,2.0,51,0.00,,OVC080,0.00,VWS V12.07,2013-03-05 03:13:00,
2013-03-04 21:15:00,26.4,11.6,30.08,East,89,0.0,2.0,53,0.00,,OVC080,0.00,VWS V12.07,2013-03-05 03:15:00,
2013-03-04 21:17:00,26.4,11.6,30.08,East,89,0.0,0.0,53,0.00,,OVC080,0.00,VWS V12.07,2013-03-05 03:17:00,
2013-03-04 21:18:00,26.4,11.6,30.08,East,89,0.0,1.0,53,0.00,,OVC080,0.00,VWS V12.07,2013-03-05 03:18:00,
2013-03-04 21:20:00,26.4,11.2,30.08,ENE,78,0.0,1.0,52,0.00,,OVC080,0.00,VWS V12.07,2013-03-05 03:20:00,
2013-03-04 21:22:00,26.4,11.2,30.08,NE,41,4.0,9.0,52,0.00,,OVC080,0.00,VWS V12.07,2013-03-05 03:22:00,
2013-03-04 21:23:00,26.4,12.0,30.08,SSE,154,0.0,9.0,54,0.00,,OVC080,0.00,VWS V12.07,2013-03-05 03:23:00,
2013-03-04 21:24:00,26.4,11.6,30.08,ENE,67,2.0,9.0,53,0.00,,OVC080,0.00,VWS V12.07,2013-03-05 03:24:00,
2013-03-04 21:26:00,26.4,11.2,30.08,ENE,67,0.0,9.0,52,0.00,,OVC080,0.00,VWS V12.07,2013-03-05 03:26:00,
2013-03-04 21:27:00,26.4,11.6,30.08,ENE,67,0.0,9.0,53,0.00,,OVC080,0.00,VWS V12.07,2013-03-05 03:27:00,
2013-03-04 21:28:00,26.6,11.4,30.08,East,82,2.0,9.0,52,0.00,,OVC080,0.00,VWS V12.07,2013-03-05 03:28:00,
2013-03-04 21:29:00,26.6,11.4,30.08,East,82,1.0,2.0,52,0.00,,OVC080,0.00,VWS V12.07,2013-03-05 03:29:00,
2013-03-04 21:31:00,26.6,11.4,30.07,ESE,113,0.0,3.0,52,0.00,,OVC080,0.00,VWS V12.07,2013-03-05 03:31:00,
2013-03-04 21:32:00,26.6,11.8,30.07,East,82,3.0,3.0,53,0.00,,OVC080,0.00,VWS V12.07,2013-03-05 03:32:00,
2013-03-04 21:33:00,26.6,11.8,30.07,East,79,2.0,3.0,53,0.00,,OVC080,0.00,VWS V12.07,2013-03-05 03:33:00,
2013-03-04 21:34:00,26.6,11.8,30.07,East,97,2.0,5.0,53,0.00,,OVC060,0.00,VWS V12.07,2013-03-05 03:34:00,
2013-03-04 21:36:00,26.6,11.8,30.07,East,86,0.0,5.0,53,0.00,,OVC060,0.00,VWS V12.07,2013-03-05 03:36:00,
2013-03-04 21:37:00,26.6,11.8,30.07,ENE,76,2.0,4.0,53,0.00,,OVC060,0.00,VWS V12.07,2013-03-05 03:37:00,
2013-03-04 21:39:00,26.6,11.8,30.07,ESE,115,5.0,7.0,53,0.00,,OVC060,0.00,VWS V12.07,2013-03-05 03:39:00,
2013-03-04 21:41:00,26.6,12.2,30.07,ENE,60,2.0,7.0,54,0.00,,OVC060,0.00,VWS V12.07,2013-03-05 03:41:00,
2013-03-04 21:42:00,26.6,12.2,30.07,East,87,3.0,7.0,54,0.00,,OVC060,0.00,VWS V12.07,2013-03-05 03:42:00,
2013-03-04 21:44:00,26.6,12.2,30.06,NE,42,4.0,7.0,54,0.00,,OVC060,0.00,VWS V12.07,2013-03-05 03:44:00,
2013-03-04 21:46:00,26.4,12.0,30.06,ESE,118,3.0,7.0,54,0.00,,OVC060,0.00,VWS V12.07,2013-03-05 03:46:00,
2013-03-04 21:47:00,26.4,12.0,30.06,ENE,72,0.0,4.0,54,0.00,,OVC060,0.00,VWS V12.07,2013-03-05 03:47:00,
2013-03-04 21:49:00,26.4,12.4,30.06,ENE,72,0.0,4.0,55,0.00,,OVC060,0.00,VWS V12.07,2013-03-05 03:49:00,
2013-03-04 21:50:00,26.4,12.4,30.06,East,83,1.0,4.0,55,0.00,,OVC060,0.00,VWS V12.07,2013-03-05 03:50:00,
2013-03-04 21:51:00,26.4,12.0,30.06,East,86,1.0,4.0,54,0.00,,OVC060,0.00,VWS V12.07,2013-03-05 03:51:00,
2013-03-04 21:53:00,26.4,12.0,30.06,East,87,1.0,4.0,54,0.00,,OVC060,0.00,VWS V12.07,2013-03-05 03:53:00,
2013-03-04 21:54:00,26.4,12.0,30.06,East,89,5.0,6.0,54,0.00,,OVC060,0.00,VWS V12.07,2013-03-05 03:54:00,
2013-03-04 21:55:00,26.4,12.0,30.06,ESE,105,5.0,6.0,54,0.00,,OVC060,0.00,VWS V12.07,2013-03-05 03:55:00,
2013-03-04 21:56:00,26.4,12.0,30.06,East,94,1.0,6.0,54,0.00,,OVC060,0.00,VWS V12.07,2013-03-05 03:56:00,
2013-03-04 21:58:00,26.3,12.3,30.06,East,82,2.0,5.0,55,0.00,,OVC060,0.00,VWS V12.07,2013-03-05 03:58:00,
2013-03-04 22:00:00,26.3,12.3,30.06,ESE,105,1.0,5.0,55,0.00,,OVC060,0.00,VWS V12.07,2013-03-05 04:00:00,
2013-03-04 22:02:00,26.3,12.3,30.06,ESE,102,1.0,5.0,55,0.00,,OVC060,0.00,VWS V12.07,2013-03-05 04:02:00,
2013-03-04 22:03:00,26.3,12.8,30.06,NNE,15,0.0,5.0,56,0.00,,OVC060,0.00,VWS V12.07,2013-03-05 04:03:00,
2013-03-04 22:05:00,26.1,12.6,30.06,ESE,118,2.0,5.0,56,0.00,,OVC060,0.00,VWS V12.07,2013-03-05 04:05:00,
2013-03-04 22:07:00,26.1,12.6,30.06,ESE,103,0.0,5.0,56,0.00,,OVC060,0.00,VWS V12.07,2013-03-05 04:07:00,
2013-03-04 22:08:00,26.1,12.6,30.06,NE,56,3.0,5.0,56,0.00,,OVC060,0.00,VWS V12.07,2013-03-05 04:08:00,
2013-03-04 22:10:00,26.1,12.6,30.06,ENE,59,1.0,4.0,56,0.00,,OVC060,0.00,VWS V12.07,2013-03-05 04:10:00,
2013-03-04 22:11:00,26.0,12.5,30.06,NE,39,0.0,4.0,56,0.00,,OVC060,0.00,VWS V12.07,2013-03-05 04:11:00,
2013-03-04 22:12:00,26.0,12.5,30.06,NE,38,2.0,4.0,56,0.00,,OVC060,0.00,VWS V12.07,2013-03-05 04:12:00,
2013-03-04 22:14:00,26.0,12.5,30.06,ENE,73,1.0,7.0,56,0.00,,OVC060,0.00,VWS V12.07,2013-03-05 04:14:00,
2013-03-04 22:15:00,26.0,12.5,30.06,ESE,117,2.0,7.0,56,0.00,,OVC060,0.00,VWS V12.07,2013-03-05 04:15:00,
2013-03-04 22:16:00,26.0,12.5,30.06,ENE,63,3.0,7.0,56,0.00,,OVC060,0.00,VWS V12.07,2013-03-05 04:16:00,
2013-03-04 22:17:00,26.0,12.5,30.06,NE,54,4.0,7.0,56,0.00,,OVC060,0.00,VWS V12.07,2013-03-05 04:17:00,
2013-03-04 22:19:00,25.8,12.3,30.06,SSE,162,2.0,7.0,56,0.00,,OVC060,0.00,VWS V12.07,2013-03-05 04:19:00,
2013-03-04 22:21:00,25.8,12.3,30.06,East,87,2.0,7.0,56,0.00,,OVC060,0.00,VWS V12.07,2013-03-05 04:21:00,
2013-03-04 22:22:00,25.8,12.3,30.06,ENE,73,3.0,7.0,56,0.00,,OVC060,0.00,VWS V12.07,2013-03-05 04:22:00,
2013-03-04 22:24:00,25.7,12.2,30.06,East,94,1.0,10.0,56,0.00,,OVC060,0.00,VWS V12.07,2013-03-05 04:24:00,
2013-03-04 22:26:00,25.7,12.2,30.06,ESE,114,1.0,10.0,56,0.00,,OVC060,0.00,VWS V12.07,2013-03-05 04:26:00,
2013-03-04 22:27:00,25.7,12.2,30.06,East,101,1.0,10.0,56,0.00,,OVC060,0.00,VWS V12.07,2013-03-05 04:27:00,
2013-03-04 22:28:00,25.7,12.2,30.06,ENE,59,2.0,10.0,56,0.00,,OVC060,0.00,VWS V12.07,2013-03-05 04:28:00,
2013-03-04 22:29:00,25.6,12.1,30.06,ENE,62,3.0,4.0,56,0.00,,OVC060,0.00,VWS V12.07,2013-03-05 04:29:00,
2013-03-04 22:31:00,25.6,12.1,30.07,ENE,68,1.0,5.0,56,0.00,,OVC060,0.00,VWS V12.07,2013-03-05 04:31:00,
2013-03-04 22:32:00,25.6,12.1,30.07,ENE,74,2.0,5.0,56,0.00,,OVC060,0.00,VWS V12.07,2013-03-05 04:32:00,
2013-03-04 22:33:00,25.4,11.5,30.07,East,94,0.0,5.0,55,0.00,,OVC060,0.00,VWS V12.07,2013-03-05 04:33:00,
2013-03-04 22:34:00,25.4,11.5,30.07,ESE,115,1.0,5.0,55,0.00,,OVC060,0.00,VWS V12.07,2013-03-05 04:34:00,
2013-03-04 22:36:00,25.4,11.5,30.07,East,87,1.0,5.0,55,0.00,,OVC060,0.00,VWS V12.07,2013-03-05 04:36:00,
2013-03-04 22:37:00,25.3,11.4,30.07,SSE,147,1.0,4.0,55,0.00,,OVC060,0.00,VWS V12.07,2013-03-05 04:37:00,
2013-03-04 22:39:00,25.3,11.4,30.07,ESE,121,2.0,4.0,55,0.00,,OVC060,0.00,VWS V12.07,2013-03-05 04:39:00,
2013-03-04 22:42:00,25.1,11.6,30.07,ESE,113,2.0,9.0,56,0.00,,OVC060,0.00,VWS V12.07,2013-03-05 04:42:00,
2013-03-04 22:44:00,25.0,11.5,30.07,East,88,0.0,9.0,56,0.00,,OVC060,0.00,VWS V12.07,2013-03-05 04:44:00,
2013-03-04 22:47:00,25.0,11.5,30.07,SE,142,2.0,7.0,56,0.00,,OVC060,0.00,VWS V12.07,2013-03-05 04:47:00,
2013-03-04 22:49:00,24.8,11.3,30.07,NE,35,2.0,7.0,56,0.00,,OVC060,0.00,VWS V12.07,2013-03-05 04:49:00,
2013-03-04 22:52:00,24.8,11.7,30.07,NNE,27,2.0,7.0,57,0.00,,OVC060,0.00,VWS V12.07,2013-03-05 04:52:00,
2013-03-04 22:55:00,24.7,11.6,30.07,SE,125,5.0,7.0,57,0.00,,OVC060,0.00,VWS V12.07,2013-03-05 04:55:00,
2013-03-04 22:57:00,24.7,11.2,30.07,ENE,60,2.0,7.0,56,0.00,,OVC060,0.00,VWS V12.07,2013-03-05 04:57:00,
2013-03-04 23:00:00,24.5,11.1,30.07,East,88,3.0,7.0,56,0.00,,OVC060,0.00,VWS V12.07,2013-03-05 05:00:00,
2013-03-04 23:05:00,24.5,11.5,30.07,ESE,121,0.0,7.0,57,0.00,,OVC060,0.00,VWS V12.07,2013-03-05 05:05:00,
2013-03-04 23:06:00,24.5,11.5,30.07,ESE,112,1.0,7.0,57,0.00,,OVC060,0.00,VWS V12.07,2013-03-05 05:06:00,
2013-03-04 23:10:00,24.4,11.0,30.07,East,87,1.0,6.0,56,0.00,,OVC060,0.00,VWS V12.07,2013-03-05 05:10:00,
2013-03-04 23:11:00,24.4,11.0,30.07,ESE,108,2.0,6.0,56,0.00,,OVC060,0.00,VWS V12.07,2013-03-05 05:11:00,
2013-03-04 23:15:00,24.2,10.4,30.07,ESE,112,3.0,6.0,55,0.00,,OVC060,0.00,VWS V12.07,2013-03-05 05:15:00,
2013-03-04 23:16:00,24.2,10.4,30.07,SE,127,9.0,9.0,55,0.00,,OVC060,0.00,VWS V12.07,2013-03-05 05:16:00,
2013-03-04 23:17:00,24.1,10.3,30.07,SSE,157,2.0,9.0,55,0.00,,OVC060,0.00,VWS V12.07,2013-03-05 05:17:00,
2013-03-04 23:20:00,23.9,10.1,30.07,SE,129,2.0,9.0,55,0.00,,OVC060,0.00,VWS V12.07,2013-03-05 05:20:00,
2013-03-04 23:21:00,23.9,10.1,30.07,ESE,108,2.0,9.0,55,0.00,,OVC060,0.00,VWS V12.07,2013-03-05 05:21:00,
2013-03-04 23:22:00,23.9,10.1,30.07,SE,127,1.0,9.0,55,0.00,,OVC060,0.00,VWS V12.07,2013-03-05 05:22:00,
2013-03-04 23:25:00,23.8,10.0,30.07,East,82,2.0,9.0,55,0.00,,OVC060,0.00,VWS V12.07,2013-03-05 05:25:00,
2013-03-04 23:26:00,23.8,10.0,30.07,East,96,2.0,9.0,55,0.00,,OVC060,0.00,VWS V12.07,2013-03-05 05:26:00,
2013-03-04 23:27:00,23.8,10.0,30.07,NNE,22,0.0,3.0,55,0.00,,OVC060,0.00,VWS V12.07,2013-03-05 05:27:00,
2013-03-04 23:31:00,23.8,10.4,30.08,ESE,104,6.0,6.0,56,0.00,,OVC060,0.00,VWS V12.07,2013-03-05 05:31:00,
2013-03-04 23:33:00,23.6,9.8,30.08,ENE,76,1.0,6.0,55,0.00,,OVC060,0.00,VWS V12.07,2013-03-05 05:33:00,
2013-03-04 23:36:00,23.6,10.2,30.08,ENE,76,1.0,6.0,56,0.00,,OVC060,0.00,VWS V12.07,2013-03-05 05:36:00,
2013-03-04 23:38:00,23.6,10.2,30.08,East,84,2.0,6.0,56,0.00,,OVC060,0.00,VWS V12.07,2013-03-05 05:38:00,
2013-03-04 23:41:00,23.5,9.7,30.08,SSE,155,0.0,6.0,55,0.00,,OVC060,0.00,VWS V12.07,2013-03-05 05:41:00,
2013-03-04 23:43:00,23.5,9.7,30.08,SE,146,5.0,6.0,55,0.00,,OVC060,0.00,VWS V12.07,2013-03-05 05:43:00,
2013-03-04 23:46:00,23.3,9.5,30.09,East,91,1.0,6.0,55,0.00,,OVC060,0.00,VWS V12.07,2013-03-05 05:46:00,
2013-03-04 23:47:00,23.3,9.9,30.09,SSE,163,1.0,6.0,56,0.00,,OVC060,0.00,VWS V12.07,2013-03-05 05:47:00,
2013-03-04 23:48:00,23.3,9.5,30.09,ESE,116,1.0,6.0,55,0.00,,OVC060,0.00,VWS V12.07,2013-03-05 05:48:00,
2013-03-04 23:52:00,23.2,9.4,30.09,East,98,1.0,5.0,55,0.00,,OVC060,0.00,VWS V12.07,2013-03-05 05:52:00,
2013-03-04 23:53:00,23.0,8.9,30.09,SE,139,6.0,6.0,54,0.00,,OVC060,0.00,VWS V12.07,2013-03-05 05:53:00,
2013-03-04 23:54:00,23.0,8.9,30.09,ESE,102,1.0,6.0,54,0.00,,OVC060,0.00,VWS V12.07,2013-03-05 05:54:00,
2013-03-04 23:57:00,23.0,8.9,30.09,ESE,111,1.0,6.0,54,0.00,,OVC060,0.00,VWS V12.07,2013-03-05 05:57:00,
2013-03-04 23:58:00,22.9,8.8,30.09,East,89,1.0,7.0,54,0.00,,OVC060,0.00,VWS V12.07,2013-03-05 05:58:00,
2013-03-04 23:59:00,22.9,8.8,30.09,East,89,0.0,7.0,54,0.00,,OVC060,0.00,VWS V12.07,2013-03-05 05:59:00,